
Distance (Route):
Temperature : -18.7°C
Humidity : 16.9%
Pressure : 0hPa| Receiver | Frames | First received | Last received |
|---|---|---|---|
| IW2NTF | 511 | 2026-08-30 23:13:38 | 2026-08-31 00:48:48 |
| DO3MHA-11 | 153 | 2026-08-30 23:52:46 | 2026-08-31 00:40:42 |
| DO3MHA-12 | 48 | 2026-08-31 00:16:10 | 2026-08-31 00:34:50 |
| NBG1-10 | 12 | 2026-08-31 00:19:42 | 2026-08-31 00:33:13 |
| DB0UT-7 | 11 | 2026-08-31 00:22:04 | 2026-08-31 00:33:33 |
| Receiver | Date | Latitude | Longitude | Direction | Speed | Altitude | Climb | Temperature | Humidity | Pressure | Voltage | Killtimer | Uptime | BKT | XDATA |
|---|---|---|---|---|---|---|---|---|---|---|---|---|---|---|---|
| IW2NTF | 2026-08-31 00:48:48 | 44.62332 | 12.33741 | 90° | 53km/h | 7485m | -11.3m/s | -18.7°C | 16.9% | 0hPa | 2.5V | 08:12:59 | 02:15:05 | 00:00:00 | |
| IW2NTF | 2026-08-31 00:48:38 | 44.62334 | 12.33548 | 91° | 57km/h | 7606m | -13m/s | -19.2°C | 11.9% | 0hPa | 2.5V | 08:13:09 | 02:14:55 | 00:00:00 | |
| IW2NTF | 2026-08-31 00:48:28 | 44.62336 | 12.33349 | 90° | 57km/h | 7732m | -12.8m/s | -19.9°C | 10.9% | 0hPa | 2.6V | 08:13:19 | 02:14:45 | 00:00:00 | |
| IW2NTF | 2026-08-31 00:48:08 | 44.62340 | 12.32934 | 91° | 55km/h | 7999m | -13.8m/s | -21.8°C | 8.1% | 0hPa | 2.6V | 08:13:40 | 02:14:24 | 00:00:00 | |
| IW2NTF | 2026-08-31 00:47:58 | 44.62349 | 12.32705 | 94° | 64km/h | 8140m | -12.8m/s | -22.7°C | 6.7% | 0hPa | 2.6V | 08:13:51 | 02:14:13 | 00:00:00 | |
| IW2NTF | 2026-08-31 00:47:48 | 44.62365 | 12.32470 | 95° | 68km/h | 8268m | -13.4m/s | -23.1°C | 6.2% | 0hPa | 2.6V | 08:14:01 | 02:14:03 | 00:00:00 | |
| IW2NTF | 2026-08-31 00:47:40 | 44.62379 | 12.32232 | 94° | 66km/h | 8399m | -12.8m/s | -24°C | 10.9% | 0hPa | 2.6V | 08:14:11 | 02:13:53 | 00:00:00 | |
| IW2NTF | 2026-08-31 00:47:28 | 44.62393 | 12.31999 | 94° | 64km/h | 8534m | -13.2m/s | -25.3°C | 17.1% | 0hPa | 2.6V | 08:14:21 | 02:13:43 | 00:00:00 | |
| IW2NTF | 2026-08-31 00:47:18 | 44.62408 | 12.31765 | 95° | 68km/h | 8667m | -12.8m/s | -26.6°C | 19.5% | 0hPa | 2.5V | 08:14:31 | 02:13:33 | 00:00:00 | |
| IW2NTF | 2026-08-31 00:47:07 | 44.62426 | 12.31523 | 97° | 71km/h | 8800m | -12.5m/s | -27.9°C | 22% | 0hPa | 2.4V | 08:14:41 | 02:13:23 | 00:00:00 | |
| IW2NTF | 2026-08-31 00:46:57 | 44.62450 | 12.31263 | 98° | 77km/h | 8940m | -13m/s | -29°C | 17.2% | 0hPa | 2.6V | 08:14:51 | 02:13:13 | 00:00:00 | |
| IW2NTF | 2026-08-31 00:46:47 | 44.62482 | 12.30989 | 99° | 78km/h | 9075m | -14.6m/s | -30.1°C | 20.3% | 0hPa | 2.5V | 08:15:01 | 02:13:03 | 00:00:00 | |
| IW2NTF | 2026-08-31 00:45:36 | 44.62694 | 12.29074 | 100° | 71km/h | 10158m | -14.6m/s | -39.2°C | 20% | 0hPa | 2.6V | 08:16:16 | 02:11:48 | 00:00:00 | |
| IW2NTF | 2026-08-31 00:45:25 | 44.62731 | 12.28818 | 101° | 75km/h | 10309m | -13.7m/s | -40.2°C | 18.7% | 0hPa | 2.5V | 08:16:26 | 02:11:38 | 00:00:00 | |
| IW2NTF | 2026-08-31 00:45:16 | 44.62768 | 12.28560 | 102° | 75km/h | 10456m | -15.2m/s | -41.3°C | 21.8% | 0hPa | 2.5V | 08:16:36 | 02:11:28 | 00:00:00 | |
| IW2NTF | 2026-08-31 00:45:05 | 44.62825 | 12.28248 | 106° | 75km/h | 10635m | -14m/s | -42.9°C | 25% | 0hPa | 2.5V | 08:16:48 | 02:11:16 | 00:00:00 | |
| IW2NTF | 2026-08-31 00:44:51 | 44.62889 | 12.27935 | 106° | 78km/h | 10815m | -14.9m/s | -44.3°C | 32% | 0hPa | 2.5V | 08:17:00 | 02:11:04 | 00:00:00 | |
| IW2NTF | 2026-08-31 00:44:29 | 44.63023 | 12.27347 | 106° | 82km/h | 11152m | -13.3m/s | -47.2°C | 44.1% | 0hPa | 2.5V | 08:17:22 | 02:10:42 | 00:00:00 | |
| IW2NTF | 2026-08-31 00:44:19 | 44.63079 | 12.27063 | 103° | 82km/h | 11300m | -17m/s | -48.4°C | 44.9% | 0hPa | 2.5V | 08:17:32 | 02:10:32 | 00:00:00 | |
| IW2NTF | 2026-08-31 00:44:03 | 44.63164 | 12.26608 | 107° | 84km/h | 11539m | -14.7m/s | -50.4°C | 48.8% | 0hPa | 2.6V | 08:17:48 | 02:10:16 | 00:00:00 | |
| IW2NTF | 2026-08-31 00:43:50 | 44.63227 | 12.26325 | 106° | 82km/h | 11692m | -16.6m/s | -51.5°C | 49.2% | 0hPa | 2.5V | 08:17:58 | 02:10:06 | 00:00:00 | |
| IW2NTF | 2026-08-31 00:43:43 | 44.63287 | 12.26049 | 106° | 82km/h | 11829m | -14.9m/s | -52.7°C | 51.6% | 0hPa | 2.5V | 08:18:08 | 02:09:56 | 00:00:00 | |
| IW2NTF | 2026-08-31 00:43:33 | 44.63357 | 12.25768 | 111° | 86km/h | 11978m | -15.9m/s | -53.8°C | 51.6% | 0hPa | 2.5V | 08:18:18 | 02:09:46 | 00:00:00 | |
| IW2NTF | 2026-08-31 00:43:23 | 44.63444 | 12.25471 | 113° | 95km/h | 12143m | -16.4m/s | -55.1°C | 50.2% | 0hPa | 2.6V | 08:18:28 | 02:09:36 | 00:00:00 | |
| IW2NTF | 2026-08-31 00:43:13 | 44.63536 | 12.25158 | 110° | 93km/h | 12327m | -19.8m/s | -56.5°C | 46.6% | 0hPa | 2.5V | 08:18:38 | 02:09:26 | 00:00:00 | |
| IW2NTF | 2026-08-31 00:43:03 | 44.63617 | 12.24844 | 108° | 95km/h | 12527m | -20.2m/s | -57.8°C | 42% | 0hPa | 2.5V | 08:18:48 | 02:09:16 | 00:00:00 | |
| IW2NTF | 2026-08-31 00:42:53 | 44.63691 | 12.24537 | 107° | 86km/h | 12735m | -21.6m/s | -58.9°C | 36.3% | 0hPa | 2.5V | 08:18:58 | 02:09:06 | 00:00:00 | |
| IW2NTF | 2026-08-31 00:42:43 | 44.63753 | 12.24247 | 105° | 89km/h | 12953m | -22.5m/s | -60.4°C | 32.4% | 0hPa | 2.6V | 08:19:08 | 02:08:56 | 00:00:00 | |
| IW2NTF | 2026-08-31 00:42:32 | 44.63805 | 12.23946 | 101° | 86km/h | 13174m | -22.2m/s | -61.5°C | 26.6% | 0hPa | 2.5V | 08:19:18 | 02:08:46 | 00:00:00 | |
| IW2NTF | 2026-08-31 00:42:18 | 44.63848 | 12.23644 | 100° | 86km/h | 13401m | -23m/s | -62.7°C | 23.3% | 0hPa | 2.5V | 08:19:28 | 02:08:36 | 00:00:00 | |
| IW2NTF | 2026-08-31 00:42:13 | 44.63887 | 12.23347 | 102° | 84km/h | 13632m | -22.5m/s | -64.2°C | 22.9% | 0hPa | 2.5V | 08:19:38 | 02:08:26 | 00:00:00 | |
| IW2NTF | 2026-08-31 00:42:03 | 44.63939 | 12.23065 | 105° | 78km/h | 13860m | -23.3m/s | -65.1°C | 21.4% | 0hPa | 2.6V | 08:19:48 | 02:08:16 | 00:00:00 | |
| IW2NTF | 2026-08-31 00:41:50 | 44.63978 | 12.22807 | 99° | 71km/h | 14094m | -23.1m/s | -66.1°C | 17.1% | 0hPa | 2.6V | 08:19:58 | 02:08:06 | 00:00:00 | |
| IW2NTF | 2026-08-31 00:41:42 | 44.64006 | 12.22528 | 99° | 55km/h | 14367m | -22.2m/s | -61.2°C | 10.1% | 0hPa | 2.6V | 08:20:10 | 02:07:54 | 00:00:00 | |
| IW2NTF | 2026-08-31 00:41:27 | 44.64005 | 12.22322 | 78° | 49km/h | 14652m | -23.2m/s | -62.6°C | 10% | 0hPa | 2.6V | 08:20:22 | 02:07:42 | 00:00:00 | |
| IW2NTF | 2026-08-31 00:41:18 | 44.63962 | 12.22078 | 76° | 68km/h | 14921m | -20.1m/s | -62.7°C | 9.1% | 0hPa | 2.6V | 08:20:34 | 02:07:30 | 00:00:00 | |
| IW2NTF | 2026-08-31 00:41:06 | 44.63921 | 12.21858 | 74° | 62km/h | 15142m | -22.5m/s | -62.2°C | 8.6% | 0hPa | 2.5V | 08:20:44 | 02:07:20 | 00:00:00 | |
| IW2NTF | 2026-08-31 00:40:57 | 44.63886 | 12.21622 | 80° | 71km/h | 15375m | -24.1m/s | -62.6°C | 8.8% | 0hPa | 2.5V | 08:20:54 | 02:07:10 | 00:00:00 | |
| IW2NTF | 2026-08-31 00:40:43 | 44.63877 | 12.21323 | 90° | 71km/h | 15639m | -19.5m/s | -60.2°C | 7% | 0hPa | 2.6V | 08:21:06 | 02:06:58 | 00:00:00 | |
| DO3MHA-11 | 2026-08-31 00:40:42 | 44.63876 | 12.21372 | 92° | 64km/h | 15599m | -21.8m/s | -60.8°C | 7.4% | 0hPa | 2.5V | 00:00:00 | 02:07:00 | 00:00:00 | |
| IW2NTF | 2026-08-31 00:40:32 | 44.63876 | 12.21104 | 83° | 49km/h | 15830m | -20.6m/s | -59.7°C | 6.4% | 0hPa | 2.5V | 08:21:16 | 02:06:48 | 00:00:00 | |
| DO3MHA-11 | 2026-08-31 00:40:32 | 44.63878 | 12.21140 | 87° | 42km/h | 15790m | -18.8m/s | -59.6°C | 6.4% | 0hPa | 2.5V | 00:00:00 | 02:06:50 | 00:00:00 | |
| IW2NTF | 2026-08-31 00:40:22 | 44.63852 | 12.20954 | 75° | 42km/h | 16029m | -20.6m/s | -59.6°C | 6.2% | 0hPa | 2.5V | 08:21:26 | 02:06:38 | 00:00:00 | |
| IW2NTF | 2026-08-31 00:40:13 | 44.63808 | 12.20803 | 64° | 49km/h | 16235m | -18.6m/s | -59.5°C | 6% | 0hPa | 2.5V | 08:21:36 | 02:06:28 | 00:00:00 | |
| IW2NTF | 2026-08-31 00:40:02 | 44.63771 | 12.20637 | 82° | 49km/h | 16438m | -17.9m/s | -59.7°C | 6% | 0hPa | 2.5V | 08:21:46 | 02:06:18 | 00:00:00 | |
| IW2NTF | 2026-08-31 00:39:56 | 44.63760 | 12.20467 | 87° | 42km/h | 16620m | -16.9m/s | -59.4°C | 5.8% | 0hPa | 2.6V | 08:21:56 | 02:06:08 | 00:00:00 | |
| IW2NTF | 2026-08-31 00:39:38 | 44.63743 | 12.20335 | 69° | 35km/h | 16831m | -18.9m/s | -59.2°C | 5.7% | 0hPa | 2.5V | 08:22:08 | 02:05:56 | 00:00:00 | |
| IW2NTF | 2026-08-31 00:39:33 | 44.63715 | 12.20191 | 75° | 44km/h | 17020m | -14.3m/s | -59.9°C | 6.1% | 0hPa | 2.6V | 08:22:18 | 02:05:46 | 00:00:00 | |
| IW2NTF | 2026-08-31 00:39:24 | 44.63675 | 12.20076 | 58° | 33km/h | 17224m | -20.4m/s | -58.4°C | 5.4% | 0hPa | 2.5V | 08:22:28 | 02:05:36 | 00:00:00 | |
| IW2NTF | 2026-08-31 00:39:14 | 44.63647 | 12.19972 | 79° | 29km/h | 17432m | -25.1m/s | -58.8°C | 5.6% | 0hPa | 2.6V | 08:22:38 | 02:05:26 | 00:00:00 | |
| IW2NTF | 2026-08-31 00:39:04 | 44.63635 | 12.19874 | 95° | 27km/h | 17684m | -23.2m/s | -58.4°C | 5.5% | 0hPa | 2.5V | 08:22:48 | 02:05:16 | 00:00:00 | |
| IW2NTF | 2026-08-31 00:38:53 | 44.63635 | 12.19804 | 58° | 20km/h | 17905m | -23m/s | -57.1°C | 5.1% | 0hPa | 2.5V | 08:22:58 | 02:05:06 | 00:00:00 | |
| IW2NTF | 2026-08-31 00:38:43 | 44.63606 | 12.19723 | 62° | 24km/h | 18133m | -26.4m/s | -57.8°C | 5.3% | 0hPa | 2.5V | 08:23:08 | 02:04:56 | 00:00:00 | |
| DO3MHA-11 | 2026-08-31 00:38:41 | 44.63615 | 12.19750 | 62° | 24km/h | 18058m | -23.4m/s | -57.7°C | 5.4% | 0hPa | 2.5V | 08:23:00 | 02:04:59 | 00:00:00 | |
| IW2NTF | 2026-08-31 00:38:31 | 44.63573 | 12.19681 | 19° | 15km/h | 18383m | -24.1m/s | -56.2°C | 4.7% | 0hPa | 2.5V | 08:23:18 | 02:04:46 | 00:00:00 | |
| IW2NTF | 2026-08-31 00:38:23 | 44.63537 | 12.19630 | 63° | 26km/h | 18635m | -25.6m/s | -56.7°C | 4.8% | 0hPa | 2.6V | 08:23:28 | 02:04:36 | 00:00:00 | |
| DO3MHA-11 | 2026-08-31 00:38:21 | 44.63547 | 12.19653 | 57° | 18km/h | 18559m | -26.3m/s | -56.3°C | 4.7% | 0hPa | 2.6V | 00:00:00 | 02:04:39 | 00:00:00 | |
| IW2NTF | 2026-08-31 00:38:13 | 44.63524 | 12.19552 | 77° | 13km/h | 18871m | -23.6m/s | -57°C | 5% | 0hPa | 2.6V | 08:23:38 | 02:04:26 | 00:00:00 | |
| IW2NTF | 2026-08-31 00:38:03 | 44.63520 | 12.19508 | 101° | 18km/h | 19105m | -19.9m/s | -57.5°C | 5.3% | 0hPa | 2.5V | 08:23:48 | 02:04:16 | 00:00:00 | |
| IW2NTF | 2026-08-31 00:37:53 | 44.63525 | 12.19461 | 46° | 9km/h | 19333m | -27m/s | -56.8°C | 4.9% | 0hPa | 2.5V | 08:23:58 | 02:04:06 | 00:00:00 | |
| IW2NTF | 2026-08-31 00:37:43 | 44.63506 | 12.19468 | 315° | 11km/h | 19577m | -21.8m/s | -57.2°C | 4.9% | 0hPa | 2.5V | 08:24:08 | 02:03:56 | 00:00:00 | |
| IW2NTF | 2026-08-31 00:37:33 | 44.63474 | 12.19482 | 3° | 20km/h | 19774m | -19.2m/s | -57.1°C | 5% | 0hPa | 2.6V | 08:24:18 | 02:03:46 | 00:00:00 | |
| IW2NTF | 2026-08-31 00:37:24 | 44.63434 | 12.19454 | 71° | 16km/h | 19941m | -16m/s | -57.7°C | 5.2% | 0hPa | 2.6V | 08:24:28 | 02:03:36 | 00:00:00 | |
| IW2NTF | 2026-08-31 00:37:14 | 44.63430 | 12.19409 | 93° | 7km/h | 20117m | -18.6m/s | -56.8°C | 4.8% | 0hPa | 2.6V | 08:24:38 | 02:03:26 | 00:00:00 | |
| DO3MHA-11 | 2026-08-31 00:37:13 | 44.63430 | 12.19424 | 85° | 7km/h | 20045m | -17.3m/s | -57.5°C | 5.2% | 0hPa | 2.6V | 00:00:00 | 02:03:30 | 00:00:00 | |
| IW2NTF | 2026-08-31 00:37:03 | 44.63424 | 12.19416 | 321° | 11km/h | 20289m | -16.9m/s | -57.9°C | 5.3% | 0hPa | 2.6V | 08:24:48 | 02:03:16 | 00:00:00 | |
| DO3MHA-11 | 2026-08-31 00:37:02 | 44.63430 | 12.19405 | 296° | 7km/h | 20220m | -17.6m/s | -57.4°C | 5.0% | 0hPa | 2.5V | 00:00:00 | 02:03:20 | 00:00:00 | |
| DO3MHA-11 | 2026-08-31 00:36:52 | 44.63414 | 12.19420 | 61° | 7km/h | 20393m | -17.1m/s | -58.0°C | 5.5% | 0hPa | 2.5V | 00:00:00 | 02:03:10 | 00:00:00 | |
| IW2NTF | 2026-08-31 00:36:51 | 44.63417 | 12.19408 | 98° | 7km/h | 20500m | -19.2m/s | -57.4°C | 5.5% | 0hPa | 2.5V | 08:25:00 | 02:03:04 | 00:00:00 | |
| IW2NTF | 2026-08-31 00:36:37 | 44.63396 | 12.19397 | 26° | 9km/h | 20706m | -28m/s | -56.8°C | 5.1% | 0hPa | 2.5V | 08:25:10 | 02:02:54 | 00:00:00 | |
| IW2NTF | 2026-08-31 00:36:31 | 44.63399 | 12.19368 | 130° | 11km/h | 20950m | -21.4m/s | -56°C | 4.7% | 0hPa | 2.5V | 08:25:20 | 02:02:44 | 00:00:00 | |
| IW2NTF | 2026-08-31 00:36:22 | 44.63406 | 12.19364 | 0° | 5km/h | 21143m | -18.2m/s | -56.5°C | 5% | 0hPa | 2.5V | 08:25:30 | 02:02:34 | 00:00:00 | |
| IW2NTF | 2026-08-31 00:36:11 | 44.63363 | 12.19368 | 347° | 27km/h | 21319m | -17.4m/s | -56.8°C | 5.3% | 0hPa | 2.5V | 08:25:40 | 02:02:24 | 00:00:00 | |
| IW2NTF | 2026-08-31 00:36:01 | 44.63289 | 12.19380 | 2° | 31km/h | 21494m | -17.5m/s | -55.3°C | 4.8% | 0hPa | 2.5V | 08:25:50 | 02:02:14 | 00:00:00 | |
| IW2NTF | 2026-08-31 00:35:50 | 44.63213 | 12.19315 | 55° | 24km/h | 21752m | -22.2m/s | -55.4°C | 4.9% | 0hPa | 2.5V | 08:26:02 | 02:02:02 | 00:00:00 | |
| IW2NTF | 2026-08-31 00:35:34 | 44.63192 | 12.19273 | 40° | 5km/h | 22042m | -25.2m/s | -54.7°C | 4.7% | 0hPa | 2.6V | 08:26:14 | 02:01:50 | 00:00:00 | |
| DO3MHA-11 | 2026-08-31 00:35:30 | 44.63191 | 12.19271 | 26° | 9km/h | 22090m | -22.1m/s | -54.4°C | 4.6% | 0hPa | 2.5V | 00:00:00 | 02:01:48 | 00:00:00 | |
| IW2NTF | 2026-08-31 00:35:24 | 44.63207 | 12.19276 | 208° | 16km/h | 22298m | -24.3m/s | -54.5°C | 4.5% | 0hPa | 2.6V | 08:26:24 | 02:01:40 | 00:00:00 | |
| DO3MHA-11 | 2026-08-31 00:35:20 | 44.63214 | 12.19282 | 221° | 24km/h | 22350m | -26.9m/s | -54.2°C | 4.4% | 0hPa | 2.6V | 00:00:00 | 02:01:38 | 00:00:00 | |
| IW2NTF | 2026-08-31 00:35:14 | 44.63234 | 12.19326 | 244° | 18km/h | 22559m | -25.3m/s | -54.2°C | 4.3% | 0hPa | 2.6V | 08:26:34 | 02:01:30 | 00:00:00 | |
| IW2NTF | 2026-08-31 00:35:04 | 44.63249 | 12.19371 | 255° | 13km/h | 22798m | -25.3m/s | -54.5°C | 4.4% | 0hPa | 2.6V | 08:26:44 | 02:01:20 | 00:00:00 | |
| IW2NTF | 2026-08-31 00:34:54 | 44.63260 | 12.19440 | 265° | 29km/h | 23060m | -28.9m/s | -54.8°C | 4.3% | 0hPa | 2.6V | 08:26:54 | 02:01:10 | 00:00:00 | |
| DO3MHA-12 | 2026-08-31 00:34:50 | 44.63259 | 12.19462 | 276° | 29km/h | 23118m | -29.2m/s | -54.9°C | 4.4% | 0hPa | 2.5V | 00:00:00 | 02:01:08 | 00:00:00 | |
| DO3MHA-11 | 2026-08-31 00:34:49 | 44.63258 | 12.19473 | 278° | 29km/h | 23146m | -25.6m/s | -55.1°C | 4.5% | 0hPa | 2.6V | 00:00:00 | 02:01:07 | 00:00:00 | |
| IW2NTF | 2026-08-31 00:34:44 | 44.63237 | 12.19538 | 317° | 26km/h | 23335m | -28.1m/s | -55.6°C | 4.8% | 0hPa | 2.6V | 08:27:04 | 02:01:00 | 00:00:00 | |
| DO3MHA-12 | 2026-08-31 00:34:40 | 44.63227 | 12.19549 | 326° | 16km/h | 23386m | -24.6m/s | 0°C | 0% | 0hPa | 2.5V | 00:00:00 | 02:00:58 | 00:00:00 | |
| DO3MHA-11 | 2026-08-31 00:34:39 | 44.63221 | 12.19554 | 331° | 15km/h | 23411m | -24.2m/s | -55.8°C | 5.0% | 0hPa | 2.5V | 08:27:00 | 02:00:57 | 00:00:00 | |
| IW2NTF | 2026-08-31 00:34:35 | 44.63196 | 12.19571 | 297° | 5km/h | 23570m | -24m/s | -55.7°C | 5% | 0hPa | 2.5V | 08:27:14 | 02:00:50 | 00:00:00 | |
| DO3MHA-12 | 2026-08-31 00:34:30 | 44.63195 | 12.19576 | 269° | 18km/h | 23621m | -25.6m/s | -55.4°C | 4.9% | 0hPa | 2.5V | 00:00:00 | 02:00:48 | 00:00:00 | |
| DO3MHA-11 | 2026-08-31 00:34:29 | 44.63195 | 12.19580 | 266° | 20km/h | 23647m | -27.4m/s | -55.3°C | 4.9% | 0hPa | 2.5V | 00:00:00 | 02:00:47 | 00:00:00 | |
| IW2NTF | 2026-08-31 00:34:24 | 44.63188 | 12.19625 | 301° | 26km/h | 23831m | -25.8m/s | -54.7°C | 4.8% | 0hPa | 2.5V | 08:27:24 | 02:00:40 | 00:00:00 | |
| DO3MHA-12 | 2026-08-31 00:34:20 | 44.63180 | 12.19640 | 310° | 24km/h | 23880m | -21.6m/s | -54.5°C | 4.9% | 0hPa | 2.6V | 08:27:00 | 02:00:38 | 00:00:00 | |
| DO3MHA-11 | 2026-08-31 00:34:19 | 44.63175 | 12.19647 | 315° | 24km/h | 23900m | -19.9m/s | -54.4°C | 4.8% | 0hPa | 2.5V | 00:00:00 | 02:00:37 | 00:00:00 | |
| IW2NTF | 2026-08-31 00:34:14 | 44.63144 | 12.19691 | 322° | 20km/h | 24053m | -25.7m/s | -54.4°C | 4.9% | 0hPa | 2.5V | 08:27:34 | 02:00:30 | 00:00:00 | |
| DO3MHA-12 | 2026-08-31 00:34:10 | 44.63137 | 12.19698 | 332° | 9km/h | 24107m | -26.6m/s | -54.2°C | 4.8% | 0hPa | 2.6V | 00:00:00 | 02:00:28 | 00:00:00 | |
| DO3MHA-11 | 2026-08-31 00:34:09 | 44.63134 | 12.19700 | 346° | 7km/h | 24134m | -27.7m/s | -54.1°C | 4.8% | 0hPa | 2.6V | 00:00:00 | 02:00:27 | 00:00:00 | |
| IW2NTF | 2026-08-31 00:34:04 | 44.63117 | 12.19696 | 17° | 7km/h | 24318m | -19.6m/s | -52.9°C | 4.4% | 0hPa | 2.5V | 08:27:44 | 02:00:20 | 00:00:00 | |
| DO3MHA-12 | 2026-08-31 00:33:59 | 44.63112 | 12.19695 | 346° | 5km/h | 24385m | -22.1m/s | -52.6°C | 4.3% | 0hPa | 2.5V | 00:00:00 | 02:00:17 | 00:00:00 | |
| DO3MHA-11 | 2026-08-31 00:33:58 | 44.63112 | 12.19696 | 335° | 7km/h | 24407m | -20.5m/s | -52.4°C | 4.3% | 0hPa | 2.5V | 00:00:00 | 02:00:16 | 00:00:00 | |
| IW2NTF | 2026-08-31 00:33:54 | 44.63116 | 12.19698 | 199° | 9km/h | 24525m | -23.4m/s | -52.3°C | 4.3% | 0hPa | 2.5V | 08:27:54 | 02:00:10 | 00:00:00 | |
| DO3MHA-12 | 2026-08-31 00:33:49 | 44.63124 | 12.19703 | 224° | 20km/h | 24603m | -26.7m/s | -52.1°C | 4.1% | 0hPa | 2.5V | 00:00:00 | 02:00:07 | 00:00:00 | |
| DO3MHA-11 | 2026-08-31 00:33:48 | 44.63126 | 12.19708 | 236° | 20km/h | 24630m | -28.0m/s | -52.0°C | 4.1% | 0hPa | 2.6V | 00:00:00 | 02:00:06 | 00:00:00 | |
| IW2NTF | 2026-08-31 00:33:45 | 44.63128 | 12.19746 | 284° | 22km/h | 24791m | -28.8m/s | -52.3°C | 4.2% | 0hPa | 2.6V | 08:28:04 | 02:00:00 | 00:00:00 | |
| DO3MHA-12 | 2026-08-31 00:33:39 | 44.63122 | 12.19770 | 296° | 24km/h | 24870m | -26.2m/s | -52.1°C | 4.2% | 0hPa | 2.5V | 00:00:00 | 01:59:57 | 00:00:00 | |
| DO3MHA-11 | 2026-08-31 00:33:38 | 44.63119 | 12.19778 | 305° | 24km/h | 24899m | -30.8m/s | -51.9°C | 4.1% | 0hPa | 2.5V | 00:00:00 | 01:59:56 | 00:00:00 | |
| IW2NTF | 2026-08-31 00:33:34 | 44.63093 | 12.19814 | 325° | 24km/h | 25034m | -22.7m/s | -51.6°C | 4.1% | 0hPa | 2.6V | 08:28:14 | 01:59:50 | 00:00:00 | |
| DB0UT-7 | 2026-08-31 00:33:33 | 44.63098 | 12.19809 | 324° | 18km/h | 25014m | -19.6m/s | -51.6°C | 4.1% | 0hPa | 2.5V | 00:00:00 | 00:00:00 | 00:00:00 | |
| DO3MHA-12 | 2026-08-31 00:33:29 | 44.63077 | 12.19826 | 338° | 15km/h | 25105m | -21.7m/s | -51.7°C | 4.1% | 0hPa | 2.5V | 00:00:00 | 01:59:47 | 00:00:00 | |
| DO3MHA-11 | 2026-08-31 00:33:28 | 44.63071 | 12.19829 | 340° | 13km/h | 25128m | -22.8m/s | -51.6°C | 4.1% | 0hPa | 2.5V | 00:00:00 | 01:59:46 | 00:00:00 | |
| IW2NTF | 2026-08-31 00:33:24 | 44.63051 | 12.19841 | 297° | 7km/h | 25258m | -25.9m/s | -51.4°C | 4.1% | 0hPa | 2.5V | 08:28:24 | 01:59:40 | 00:00:00 | |
| DO3MHA-12 | 2026-08-31 00:33:19 | 44.63050 | 12.19848 | 262° | 26km/h | 25335m | -26.0m/s | -51.2°C | 4.0% | 0hPa | 2.6V | 00:00:00 | 01:59:37 | 00:00:00 | |
| DO3MHA-11 | 2026-08-31 00:33:18 | 44.63050 | 12.19851 | 270° | 18km/h | 25362m | -28.0m/s | -51.0°C | 3.9% | 0hPa | 2.5V | 00:00:00 | 01:59:36 | 00:00:00 | |
| IW2NTF | 2026-08-31 00:33:14 | 44.63044 | 12.19889 | 292° | 22km/h | 25541m | -30.4m/s | -51.2°C | 3.9% | 0hPa | 2.5V | 08:28:34 | 01:59:30 | 00:00:00 | |
| NBG1-10 | 2026-08-31 00:33:13 | 44.63045 | 12.19882 | 293° | 20km/h | 25511m | -29.6m/s | -51.1°C | 3.9% | 0hPa | 2.5V | 00:00:00 | 01:59:31 | 00:00:00 | |
| DO3MHA-11 | 2026-08-31 00:33:08 | 44.63033 | 12.19913 | 307° | 26km/h | 25658m | -27.1m/s | -51.0°C | 4.0% | 0hPa | 2.5V | 08:28:00 | 01:59:26 | 00:00:00 | |
| IW2NTF | 2026-08-31 00:33:04 | 44.63022 | 12.19931 | 303° | 5km/h | 25807m | -25.5m/s | -50.7°C | 3.9% | 0hPa | 2.5V | 08:28:44 | 01:59:20 | 00:00:00 | |
| IW2NTF | 2026-08-31 00:32:54 | 44.63029 | 12.19974 | 247° | 26km/h | 26072m | -27.1m/s | -50.9°C | 4% | 0hPa | 2.6V | 08:28:54 | 01:59:10 | 00:00:00 | |
| DO3MHA-11 | 2026-08-31 00:32:45 | 44.63050 | 12.20042 | 267° | 31km/h | 26259m | -26.3m/s | -50.8°C | 4.0% | 0hPa | 2.6V | 00:00:00 | 01:59:03 | 00:00:00 | |
| IW2NTF | 2026-08-31 00:32:44 | 44.63044 | 12.20073 | 298° | 33km/h | 26341m | -25.6m/s | -50.4°C | 3.9% | 0hPa | 2.6V | 08:29:04 | 01:59:00 | 00:00:00 | |
| NBG1-10 | 2026-08-31 00:32:40 | 44.63034 | 12.20093 | 307° | 11km/h | 26387m | -23.2m/s | -50.3°C | 3.9% | 0hPa | 2.5V | 00:00:00 | 01:58:58 | 00:00:00 | |
| IW2NTF | 2026-08-31 00:32:35 | 44.63000 | 12.20151 | 324° | 22km/h | 26579m | -20.9m/s | -50.2°C | 4% | 0hPa | 2.5V | 08:30:00 | 01:58:50 | 00:00:00 | |
| IW2NTF | 2026-08-31 00:32:24 | 44.62963 | 12.20154 | 26° | 7km/h | 26817m | -26.8m/s | -49.7°C | 3.9% | 0hPa | 2.5V | 08:30:00 | 01:58:40 | 00:00:00 | |
| DB0UT-7 | 2026-08-31 00:32:22 | 44.62963 | 12.20154 | 27° | 7km/h | 26817m | -26.8m/s | -49.6°C | 3.9% | 0hPa | 2.5V | 00:00:00 | 01:58:40 | 00:00:00 | |
| IW2NTF | 2026-08-31 00:32:13 | 44.62962 | 12.20160 | 262° | 7km/h | 27080m | -27.5m/s | -49.1°C | 3.9% | 0hPa | 2.5V | 08:30:00 | 01:58:30 | 00:00:00 | |
| IW2NTF | 2026-08-31 00:32:03 | 44.62954 | 12.20180 | 340° | 11km/h | 27383m | -34.1m/s | -48.1°C | 3.7% | 0hPa | 2.5V | 08:30:00 | 01:58:20 | 00:00:00 | |
| IW2NTF | 2026-08-31 00:31:53 | 44.62941 | 12.20168 | 109° | 7km/h | 27713m | -32.6m/s | -47.1°C | 3.5% | 0hPa | 2.5V | 08:30:00 | 01:58:10 | 00:00:00 | |
| DB0UT-7 | 2026-08-31 00:31:52 | 44.62941 | 12.20168 | 110° | 5km/h | 27714m | -32.6m/s | -47.1°C | 3.5% | 0hPa | 2.5V | 08:29:00 | 00:00:00 | 00:00:00 | |
| IW2NTF | 2026-08-31 00:31:44 | 44.62931 | 12.20161 | 111° | 4km/h | 28033m | -30.4m/s | -47°C | 3.6% | 0hPa | 2.5V | 08:30:00 | 01:58:00 | 00:00:00 | |
| IW2NTF | 2026-08-31 00:31:34 | 44.62938 | 12.20147 | 26° | 15km/h | 28348m | -38.2m/s | -45.5°C | 3.1% | 0hPa | 2.5V | 08:30:00 | 01:57:50 | 00:00:00 | |
| IW2NTF | 2026-08-31 00:31:23 | 44.62921 | 12.20124 | 170° | 4km/h | 28712m | -29.4m/s | -45.7°C | 3.1% | 0hPa | 2.5V | 08:30:00 | 01:57:40 | 00:00:00 | |
| IW2NTF | 2026-08-31 00:31:13 | 44.62931 | 12.20090 | 132° | 13km/h | 28786m | 5.3m/s | -45.8°C | 3.1% | 0hPa | 2.6V | 08:30:00 | 01:57:26 | 00:00:00 | |
| NBG1-10 | 2026-08-31 00:31:11 | 44.62922 | 12.20103 | 121° | 16km/h | 28803m | 6.9m/s | -45.8°C | 3.1% | 0hPa | 2.5V | 00:00:00 | 01:57:29 | 00:00:00 | |
| DB0UT-7 | 2026-08-31 00:31:09 | 44.62928 | 12.20093 | 138° | 15km/h | 28791m | 4.7m/s | -45.8°C | 3.1% | 0hPa | 2.5V | 00:00:00 | 01:57:27 | 00:00:00 | |
| IW2NTF | 2026-08-31 00:30:53 | 44.62928 | 12.20045 | 60° | 9km/h | 28696m | 6.6m/s | -46.3°C | 3.2% | 0hPa | 2.5V | 08:30:00 | 01:57:10 | 00:00:00 | |
| IW2NTF | 2026-08-31 00:30:43 | 44.62910 | 12.20013 | 106° | 20km/h | 28639m | 5.5m/s | -46.3°C | 3.3% | 0hPa | 2.5V | 08:30:00 | 01:57:00 | 00:00:00 | |
| DB0UT-7 | 2026-08-31 00:30:37 | 44.62906 | 12.19991 | 26° | 11km/h | 28612m | 6.6m/s | -46.2°C | 3.3% | 0hPa | 2.5V | 00:00:00 | 00:00:00 | 00:00:00 | |
| IW2NTF | 2026-08-31 00:30:34 | 44.62880 | 12.19972 | 35° | 15km/h | 28584m | 6.3m/s | -46.2°C | 3.2% | 0hPa | 2.5V | 08:30:00 | 01:56:50 | 00:00:00 | |
| IW2NTF | 2026-08-31 00:30:24 | 44.62875 | 12.19940 | 20° | 16km/h | 28527m | 6.7m/s | -46.1°C | 3.2% | 0hPa | 2.5V | 08:30:00 | 01:56:40 | 00:00:00 | |
| IW2NTF | 2026-08-31 00:30:13 | 44.62850 | 12.19907 | 137° | 15km/h | 28468m | 5.1m/s | -46.2°C | 3.2% | 0hPa | 2.5V | 08:30:00 | 01:56:30 | 00:00:00 | |
| IW2NTF | 2026-08-31 00:30:03 | 44.62840 | 12.19902 | 10° | 7km/h | 28409m | 4.8m/s | -46.2°C | 3.2% | 0hPa | 2.5V | 08:30:00 | 01:56:20 | 00:00:00 | |
| NBG1-10 | 2026-08-31 00:29:50 | 44.62843 | 12.19883 | 46° | 5km/h | 28339m | 4.8m/s | -46.0°C | 3.2% | 0hPa | 2.5V | 00:00:00 | 01:56:08 | 00:00:00 | |
| IW2NTF | 2026-08-31 00:29:43 | 44.62851 | 12.19877 | 153° | 7km/h | 28291m | 7m/s | -46.3°C | 3.2% | 0hPa | 2.5V | 08:30:00 | 01:56:00 | 00:00:00 | |
| IW2NTF | 2026-08-31 00:29:31 | 44.62869 | 12.19854 | 159° | 5km/h | 28193m | 5.7m/s | -46.7°C | 3.3% | 0hPa | 2.5V | 08:30:00 | 01:55:44 | 00:00:00 | |
| IW2NTF | 2026-08-31 00:29:21 | 44.62864 | 12.19845 | 41° | 11km/h | 28126m | 5.1m/s | -47°C | 3.3% | 0hPa | 2.5V | 08:30:00 | 01:55:33 | 00:00:00 | |
| NBG1-10 | 2026-08-31 00:29:17 | 44.62868 | 12.19849 | 39° | 5km/h | 28139m | 6.6m/s | -46.9°C | 3.3% | 0hPa | 2.5V | 00:00:00 | 01:55:35 | 00:00:00 | |
| IW2NTF | 2026-08-31 00:29:11 | 44.62862 | 12.19850 | 266° | 7km/h | 28064m | 6m/s | -47.1°C | 3.4% | 0hPa | 2.5V | 08:30:00 | 01:55:23 | 00:00:00 | |
| IW2NTF | 2026-08-31 00:29:00 | 44.62860 | 12.19851 | 307° | 5km/h | 28003m | 6.2m/s | -47°C | 3.4% | 0hPa | 2.5V | 08:30:00 | 01:55:13 | 00:00:00 | |
| IW2NTF | 2026-08-31 00:28:50 | 44.62852 | 12.19854 | 102° | 7km/h | 27943m | 7m/s | -46.8°C | 3.3% | 0hPa | 2.5V | 08:30:00 | 01:55:03 | 00:00:00 | |
| NBG1-10 | 2026-08-31 00:28:44 | 44.62853 | 12.19852 | 131° | 7km/h | 27937m | 5.6m/s | -46.8°C | 3.3% | 0hPa | 2.6V | 00:00:00 | 01:55:02 | 00:00:00 | |
| IW2NTF | 2026-08-31 00:28:39 | 44.62855 | 12.19848 | 12° | 5km/h | 27877m | 5.6m/s | -46.8°C | 3.3% | 0hPa | 2.6V | 08:30:00 | 01:54:52 | 00:00:00 | |
| IW2NTF | 2026-08-31 00:28:29 | 44.62863 | 12.19828 | 90° | 9km/h | 27817m | 6.2m/s | -46.6°C | 3.2% | 0hPa | 2.6V | 08:30:00 | 01:54:42 | 00:00:00 | |
| IW2NTF | 2026-08-31 00:28:19 | 44.62862 | 12.19797 | 97° | 5km/h | 27756m | 6.8m/s | -46.8°C | 3.2% | 0hPa | 2.6V | 08:30:00 | 01:54:32 | 00:00:00 | |
| NBG1-10 | 2026-08-31 00:28:11 | 44.62860 | 12.19790 | 75° | 13km/h | 27739m | 6.3m/s | -47.0°C | 3.2% | 0hPa | 2.5V | 00:00:00 | 01:54:29 | 08:30:00 | |
| IW2NTF | 2026-08-31 00:28:08 | 44.62799 | 12.19740 | 327° | 18km/h | 27579m | 5.3m/s | -47.7°C | 3.4% | 0hPa | 2.6V | 08:30:00 | 01:54:02 | 00:00:00 | |
| IW2NTF | 2026-08-31 00:27:52 | 44.62784 | 12.19748 | 29° | 11km/h | 27544m | 6.6m/s | -47.9°C | 3.4% | 0hPa | 2.6V | 08:30:00 | 01:53:56 | 00:00:00 | |
| NBG1-10 | 2026-08-31 00:27:38 | 44.62784 | 12.19748 | 30° | 11km/h | 27544m | 6.6m/s | -47.8°C | 3.4% | 0hPa | 2.6V | 00:00:00 | 01:53:56 | 00:00:00 | |
| IW2NTF | 2026-08-31 00:27:33 | 44.62763 | 12.19741 | 302° | 15km/h | 27487m | 6.5m/s | -47.9°C | 3.4% | 0hPa | 2.6V | 08:30:00 | 01:53:46 | 00:00:00 | |
| IW2NTF | 2026-08-31 00:27:22 | 44.62754 | 12.19754 | 242° | 4km/h | 27432m | 4.8m/s | -48.2°C | 3.4% | 0hPa | 2.6V | 08:30:00 | 01:53:36 | 00:00:00 | |
| IW2NTF | 2026-08-31 00:27:13 | 44.62724 | 12.19769 | 10° | 11km/h | 27374m | 6.5m/s | -48.5°C | 3.4% | 0hPa | 2.6V | 08:30:00 | 01:53:26 | 00:00:00 | |
| NBG1-10 | 2026-08-31 00:27:05 | 44.62721 | 12.19766 | 94° | 9km/h | 27357m | 5.1m/s | -48.7°C | 3.5% | 0hPa | 2.6V | 00:00:00 | 01:53:23 | 00:00:00 | |
| DB0UT-7 | 2026-08-31 00:27:02 | 44.62718 | 12.19764 | 336° | 11km/h | 27341m | 4.4m/s | -48.7°C | 3.5% | 0hPa | 2.6V | 00:00:00 | 01:53:20 | 00:00:00 | |
| IW2NTF | 2026-08-31 00:27:01 | 44.62711 | 12.19781 | 290° | 16km/h | 27318m | 4.5m/s | -48.9°C | 3.6% | 0hPa | 2.5V | 08:30:00 | 01:53:16 | 00:00:00 | |
| IW2NTF | 2026-08-31 00:26:53 | 44.62702 | 12.19810 | 278° | 11km/h | 27263m | 5.4m/s | -49°C | 3.5% | 0hPa | 2.5V | 08:30:00 | 01:53:06 | 00:00:00 | |
| IW2NTF | 2026-08-31 00:26:41 | 44.62697 | 12.19834 | 184° | 4km/h | 27205m | 5.8m/s | -49.4°C | 3.6% | 0hPa | 2.5V | 08:30:00 | 01:52:56 | 00:00:00 | |
| IW2NTF | 2026-08-31 00:26:33 | 44.62700 | 12.19854 | 331° | 5km/h | 27146m | 5.4m/s | -49.4°C | 3.6% | 0hPa | 2.5V | 08:30:00 | 01:52:46 | 00:00:00 | |
| DB0UT-7 | 2026-08-31 00:26:32 | 44.62701 | 12.19844 | 240° | 5km/h | 27170m | 5.3m/s | -49.3°C | 3.6% | 0hPa | 2.5V | 00:00:00 | 00:00:00 | 00:00:00 | |
| IW2NTF | 2026-08-31 00:26:21 | 44.62695 | 12.19855 | 253° | 7km/h | 27088m | 5m/s | -49.4°C | 3.6% | 0hPa | 2.5V | 08:30:00 | 01:52:36 | 00:00:00 | |
| IW2NTF | 2026-08-31 00:26:13 | 44.62695 | 12.19858 | 11° | 4km/h | 27030m | 5.4m/s | -49.4°C | 3.6% | 0hPa | 2.6V | 08:30:00 | 01:52:26 | 00:00:00 | |
| IW2NTF | 2026-08-31 00:26:03 | 44.62696 | 12.19866 | 158° | 2km/h | 26972m | 6m/s | -49.5°C | 3.6% | 0hPa | 2.6V | 08:30:00 | 01:52:16 | 00:00:00 | |
| DB0UT-7 | 2026-08-31 00:26:00 | 44.62695 | 12.19868 | 86° | 11km/h | 26985m | 5.1m/s | -49.5°C | 3.6% | 0hPa | 2.6V | 00:00:00 | 01:52:18 | 00:00:00 | |
| NBG1-10 | 2026-08-31 00:25:59 | 44.62695 | 12.19867 | 100° | 15km/h | 26979m | 6.5m/s | -49.5°C | 3.6% | 0hPa | 2.6V | 00:00:00 | 01:52:17 | 00:00:00 | |
| IW2NTF | 2026-08-31 00:25:53 | 44.62681 | 12.19874 | 33° | 11km/h | 26914m | 6.6m/s | -49.9°C | 3.7% | 0hPa | 2.6V | 08:30:00 | 01:52:06 | 00:00:00 | |
| IW2NTF | 2026-08-31 00:25:43 | 44.62661 | 12.19843 | 359° | 13km/h | 26857m | 6.4m/s | -50°C | 3.8% | 0hPa | 2.5V | 08:30:00 | 01:51:56 | 00:00:00 | |
| IW2NTF | 2026-08-31 00:25:33 | 44.62625 | 12.19832 | 15° | 18km/h | 26800m | 6.7m/s | -50.1°C | 3.8% | 0hPa | 2.5V | 08:30:00 | 01:51:46 | 00:00:00 | |
| DB0UT-7 | 2026-08-31 00:25:30 | 44.62633 | 12.19835 | 17° | 18km/h | 26812m | 5.9m/s | 0°C | 0% | 0hPa | 2.5V | 00:00:00 | 00:00:00 | 00:00:00 | |
| IW2NTF | 2026-08-31 00:25:19 | 44.62584 | 12.19844 | 333° | 16km/h | 26740m | 6.2m/s | -50.1°C | 3.8% | 0hPa | 2.5V | 08:30:00 | 01:51:36 | 00:00:00 | |
| IW2NTF | 2026-08-31 00:25:13 | 44.62540 | 12.19858 | 327° | 20km/h | 26680m | 6m/s | -50.2°C | 3.8% | 0hPa | 2.6V | 08:30:00 | 01:51:26 | 00:00:00 | |
| IW2NTF | 2026-08-31 00:25:01 | 44.62501 | 12.19894 | 329° | 18km/h | 26621m | 5.8m/s | -50.3°C | 3.8% | 0hPa | 2.5V | 08:30:00 | 01:51:16 | 00:00:00 | |
| DB0UT-7 | 2026-08-31 00:25:00 | 44.62508 | 12.19889 | 341° | 26km/h | 26633m | 5.3m/s | 0°C | 0% | 0hPa | 2.6V | 00:00:00 | 01:51:18 | 00:00:00 | |
| IW2NTF | 2026-08-31 00:24:51 | 44.62440 | 12.19980 | 316° | 29km/h | 26547m | 6.8m/s | -50°C | 3.7% | 0hPa | 2.6V | 08:30:00 | 01:51:04 | 00:00:00 | |
| DO3MHA-11 | 2026-08-31 00:24:48 | 44.62451 | 12.19965 | 314° | 29km/h | 26560m | 5.4m/s | -50.0°C | 3.7% | 0hPa | 2.5V | 00:00:00 | 01:51:06 | 00:00:00 | |
| IW2NTF | 2026-08-31 00:24:41 | 44.62385 | 12.20060 | 310° | 40km/h | 26487m | 6.6m/s | -50.3°C | 3.8% | 0hPa | 2.5V | 08:30:00 | 01:50:54 | 00:00:00 | |
| DO3MHA-11 | 2026-08-31 00:24:38 | 44.62398 | 12.20037 | 309° | 35km/h | 26499m | 5.2m/s | -50.2°C | 3.8% | 0hPa | 2.5V | 00:00:00 | 01:50:56 | 00:00:00 | |
| IW2NTF | 2026-08-31 00:24:27 | 44.62347 | 12.20152 | 303° | 29km/h | 26428m | 5.5m/s | -50.5°C | 3.8% | 0hPa | 2.5V | 08:30:00 | 01:50:44 | 00:00:00 | |
| DO3MHA-12 | 2026-08-31 00:24:20 | 44.62326 | 12.20221 | 284° | 33km/h | 26391m | 5.0m/s | -50.4°C | 3.8% | 0hPa | 2.5V | 00:00:00 | 01:50:38 | 00:00:00 | |
| IW2NTF | 2026-08-31 00:24:19 | 44.62325 | 12.20267 | 268° | 27km/h | 26366m | 6.8m/s | -50.5°C | 3.7% | 0hPa | 2.5V | 08:30:00 | 01:50:34 | 00:00:00 | |
| DO3MHA-11 | 2026-08-31 00:24:18 | 44.62324 | 12.20245 | 271° | 27km/h | 26379m | 6.3m/s | -50.4°C | 3.8% | 0hPa | 2.6V | 00:00:00 | 01:50:36 | 00:00:00 | |
| DO3MHA-12 | 2026-08-31 00:24:09 | 44.62324 | 12.20328 | 267° | 24km/h | 26325m | 5.7m/s | -50.7°C | 3.8% | 0hPa | 2.6V | 00:00:00 | 01:50:27 | 00:00:00 | |
| IW2NTF | 2026-08-31 00:24:07 | 44.62325 | 12.20359 | 266° | 29km/h | 26307m | 5.1m/s | -51°C | 3.9% | 0hPa | 2.6V | 08:30:00 | 01:50:24 | 00:00:00 | |
| IW2NTF | 2026-08-31 00:24:01 | 44.62347 | 12.20470 | 252° | 33km/h | 26247m | 5.4m/s | -51.1°C | 4% | 0hPa | 2.6V | 08:30:00 | 01:50:14 | 00:00:00 | |
| DO3MHA-11 | 2026-08-31 00:23:58 | 44.62342 | 12.20449 | 249° | 31km/h | 26259m | 6.3m/s | -51.0°C | 4.0% | 0hPa | 2.5V | 00:00:00 | 01:50:16 | 00:00:00 | |
| IW2NTF | 2026-08-31 00:23:52 | 44.62369 | 12.20572 | 251° | 27km/h | 26186m | 6.9m/s | -50.9°C | 3.9% | 0hPa | 2.5V | 08:30:00 | 01:50:04 | 00:00:00 | |
| DO3MHA-11 | 2026-08-31 00:23:48 | 44.62365 | 12.20554 | 253° | 26km/h | 26198m | 6.3m/s | -50.9°C | 4.0% | 0hPa | 2.5V | 00:00:00 | 01:50:06 | 00:00:00 | |
| IW2NTF | 2026-08-31 00:23:41 | 44.62394 | 12.20654 | 254° | 24km/h | 26126m | 5.6m/s | -51°C | 3.9% | 0hPa | 2.5V | 08:30:00 | 01:49:54 | 00:00:00 | |
| DO3MHA-11 | 2026-08-31 00:23:38 | 44.62390 | 12.20637 | 247° | 22km/h | 26138m | 5.5m/s | -50.9°C | 3.9% | 0hPa | 2.6V | 00:00:00 | 01:49:56 | 08:30:00 | |
| IW2NTF | 2026-08-31 00:23:29 | 44.62425 | 12.20722 | 210° | 18km/h | 26054m | 5.6m/s | -51°C | 3.9% | 0hPa | 2.5V | 08:30:00 | 01:49:42 | 00:00:00 | |
| DO3MHA-11 | 2026-08-31 00:23:28 | 44.62410 | 12.20708 | 223° | 13km/h | 26077m | 5.6m/s | -51.1°C | 4.0% | 0hPa | 2.6V | 00:00:00 | 01:49:46 | 00:00:00 | |
| IW2NTF | 2026-08-31 00:23:16 | 44.62443 | 12.20756 | 222° | 5km/h | 25996m | 6m/s | -50.8°C | 3.8% | 0hPa | 2.6V | 08:30:00 | 01:49:32 | 00:00:00 | |
| IW2NTF | 2026-08-31 00:23:01 | 44.62447 | 12.20779 | 349° | 13km/h | 25915m | 6.7m/s | -51.1°C | 3.9% | 0hPa | 2.5V | 08:30:00 | 01:49:18 | 00:00:00 | |
| IW2NTF | 2026-08-31 00:22:55 | 44.62451 | 12.20791 | 245° | 11km/h | 25860m | 6.6m/s | -51°C | 3.9% | 0hPa | 2.5V | 08:30:00 | 01:49:08 | 00:00:00 | |
| DO3MHA-11 | 2026-08-31 00:22:48 | 44.62453 | 12.20800 | 258° | 7km/h | 25849m | 5.3m/s | -51.0°C | 3.9% | 0hPa | 2.5V | 00:00:00 | 01:49:06 | 00:00:00 | |
| IW2NTF | 2026-08-31 00:22:40 | 44.62444 | 12.20822 | 277° | 4km/h | 25791m | 5.7m/s | -51°C | 3.9% | 0hPa | 2.5V | 08:30:00 | 01:48:56 | 00:00:00 | |
| DO3MHA-11 | 2026-08-31 00:22:36 | 44.62444 | 12.20828 | 270° | 18km/h | 25780m | 4.7m/s | -51.0°C | 3.8% | 0hPa | 2.6V | 00:00:00 | 01:48:54 | 00:00:00 | |
| IW2NTF | 2026-08-31 00:22:30 | 44.62424 | 12.20879 | 308° | 16km/h | 25730m | 6.4m/s | -51.3°C | 3.8% | 0hPa | 2.5V | 08:30:00 | 01:48:45 | 00:00:00 | |
| DO3MHA-11 | 2026-08-31 00:22:26 | 44.62421 | 12.20883 | 317° | 18km/h | 25725m | 5.5m/s | -51.4°C | 3.9% | 0hPa | 2.6V | 00:00:00 | 01:48:44 | 00:00:00 | |
| IW2NTF | 2026-08-31 00:22:20 | 44.62400 | 12.20933 | 289° | 27km/h | 25673m | 5.5m/s | -51.8°C | 4% | 0hPa | 2.6V | 08:30:00 | 01:48:35 | 00:00:00 | |
| DO3MHA-12 | 2026-08-31 00:22:16 | 44.62398 | 12.20942 | 290° | 20km/h | 25668m | 5.9m/s | -51.8°C | 4.0% | 0hPa | 2.6V | 00:00:00 | 01:48:34 | 08:30:00 | |
| IW2NTF | 2026-08-31 00:22:10 | 44.62382 | 12.21003 | 284° | 16km/h | 25617m | 4.9m/s | -51.9°C | 4.1% | 0hPa | 2.5V | 08:30:00 | 01:48:25 | 00:00:00 | |
| DO3MHA-11 | 2026-08-31 00:22:06 | 44.62381 | 12.21009 | 278° | 15km/h | 25611m | 6.7m/s | -51.9°C | 4.0% | 0hPa | 2.6V | 00:00:00 | 01:48:24 | 00:00:00 | |
| DO3MHA-12 | 2026-08-31 00:22:05 | 44.62381 | 12.21016 | 271° | 13km/h | 25605m | 5.4m/s | -51.9°C | 4.1% | 0hPa | 2.5V | 00:00:00 | 01:48:23 | 00:00:00 | |
| DB0UT-7 | 2026-08-31 00:22:04 | 44.62380 | 12.21022 | 273° | 18km/h | 25600m | 4.9m/s | 0°C | 0% | 0hPa | 2.5V | 00:00:00 | 01:48:22 | 00:00:00 | |
| IW2NTF | 2026-08-31 00:21:58 | 44.62375 | 12.21056 | 271° | 7km/h | 25560m | 6.2m/s | -51.9°C | 4.1% | 0hPa | 2.5V | 08:30:00 | 01:48:15 | 00:00:00 | |
| DO3MHA-11 | 2026-08-31 00:21:56 | 44.62375 | 12.21058 | 286° | 9km/h | 25555m | 5.7m/s | -51.8°C | 4.1% | 0hPa | 2.6V | 00:00:00 | 01:48:14 | 00:00:00 | |
| DO3MHA-12 | 2026-08-31 00:21:55 | 44.62374 | 12.21060 | 282° | 11km/h | 25549m | 5.8m/s | -51.8°C | 4.1% | 0hPa | 2.6V | 00:00:00 | 01:48:13 | 00:00:00 | |
| IW2NTF | 2026-08-31 00:21:50 | 44.62376 | 12.21089 | 266° | 11km/h | 25503m | 5.2m/s | -51.6°C | 4% | 0hPa | 2.6V | 08:30:00 | 01:48:05 | 00:00:00 | |
| DO3MHA-11 | 2026-08-31 00:21:46 | 44.62375 | 12.21092 | 275° | 7km/h | 25497m | 5.8m/s | -51.5°C | 4.0% | 0hPa | 2.5V | 00:00:00 | 01:48:04 | 00:00:00 | |
| DO3MHA-12 | 2026-08-31 00:21:45 | 44.62375 | 12.21097 | 286° | 7km/h | 25491m | 6.0m/s | -51.5°C | 3.9% | 0hPa | 2.5V | 00:00:00 | 01:48:03 | 00:00:00 | |
| IW2NTF | 2026-08-31 00:21:42 | 44.62374 | 12.21116 | 282° | 4km/h | 25445m | 6.7m/s | -51.7°C | 4% | 0hPa | 2.6V | 08:30:00 | 01:47:55 | 00:00:00 | |
| DO3MHA-11 | 2026-08-31 00:21:36 | 44.62374 | 12.21117 | 255° | 9km/h | 25439m | 5.9m/s | -51.7°C | 4.0% | 0hPa | 2.6V | 00:00:00 | 01:47:54 | 08:30:00 | |
| DO3MHA-12 | 2026-08-31 00:21:35 | 44.62374 | 12.21119 | 276° | 9km/h | 25434m | 4.7m/s | -51.7°C | 4.0% | 0hPa | 2.5V | 00:00:00 | 01:47:53 | 00:00:00 | |
| IW2NTF | 2026-08-31 00:21:30 | 44.62367 | 12.21145 | 289° | 7km/h | 25386m | 4.8m/s | -52.1°C | 4.1% | 0hPa | 2.5V | 08:30:00 | 01:47:45 | 00:00:00 | |
| DO3MHA-11 | 2026-08-31 00:21:26 | 44.62367 | 12.21147 | 256° | 7km/h | 25381m | 6.7m/s | -52.1°C | 4.1% | 0hPa | 2.6V | 00:00:00 | 01:47:44 | 00:00:00 | |
| DO3MHA-12 | 2026-08-31 00:21:25 | 44.62368 | 12.21148 | 198° | 11km/h | 25375m | 5.2m/s | -52.1°C | 4.1% | 0hPa | 2.6V | 00:00:00 | 01:47:43 | 00:00:00 | |
| IW2NTF | 2026-08-31 00:21:20 | 44.62356 | 12.21161 | 324° | 22km/h | 25329m | 6.3m/s | -52.1°C | 4.1% | 0hPa | 2.6V | 08:30:00 | 01:47:35 | 00:00:00 | |
| DO3MHA-11 | 2026-08-31 00:21:16 | 44.62351 | 12.21165 | 333° | 16km/h | 25324m | 5.8m/s | 0°C | 0% | 0hPa | 2.5V | 00:00:00 | 01:47:34 | 00:00:00 | |
| DO3MHA-12 | 2026-08-31 00:21:15 | 44.62346 | 12.21169 | 337° | 15km/h | 25318m | 5.5m/s | -52.1°C | 4.1% | 0hPa | 2.5V | 00:00:00 | 01:47:33 | 00:00:00 | |
| IW2NTF | 2026-08-31 00:21:10 | 44.62318 | 12.21177 | 323° | 11km/h | 25270m | 4.7m/s | -52.2°C | 4.1% | 0hPa | 2.6V | 08:30:00 | 01:47:25 | 00:00:00 | |
| DO3MHA-11 | 2026-08-31 00:21:06 | 44.62315 | 12.21180 | 321° | 18km/h | 25266m | 5.0m/s | -52.2°C | 4.1% | 0hPa | 2.6V | 00:00:00 | 01:47:24 | 00:00:00 | |
| DO3MHA-12 | 2026-08-31 00:21:05 | 44.62312 | 12.21184 | 326° | 20km/h | 25260m | 6.6m/s | -52.1°C | 4.1% | 0hPa | 2.5V | 00:00:00 | 01:47:23 | 00:00:00 | |
| IW2NTF | 2026-08-31 00:21:00 | 44.62276 | 12.21207 | 347° | 20km/h | 25214m | 5.3m/s | -52.3°C | 4.1% | 0hPa | 2.5V | 08:30:00 | 01:47:15 | 00:00:00 | |
| DO3MHA-11 | 2026-08-31 00:20:56 | 44.62271 | 12.21208 | 348° | 24km/h | 25209m | 5.9m/s | -52.3°C | 4.1% | 0hPa | 2.5V | 00:00:00 | 01:47:14 | 00:00:00 | |
| DO3MHA-12 | 2026-08-31 00:20:55 | 44.62267 | 12.21210 | 343° | 24km/h | 25203m | 6.1m/s | -52.3°C | 4.1% | 0hPa | 2.5V | 00:00:00 | 01:47:13 | 00:00:00 | |
| IW2NTF | 2026-08-31 00:20:50 | 44.62221 | 12.21235 | 339° | 27km/h | 25156m | 6.8m/s | -52.5°C | 4.1% | 0hPa | 2.5V | 08:30:00 | 01:47:05 | 00:00:00 | |
| NBG1-10 | 2026-08-31 00:20:48 | 44.62227 | 12.21231 | 337° | 27km/h | 25162m | 4.9m/s | -52.5°C | 4.2% | 0hPa | 2.5V | 00:00:00 | 01:47:06 | 00:00:00 | |
| DO3MHA-12 | 2026-08-31 00:20:45 | 44.62208 | 12.21241 | 342° | 22km/h | 25145m | 5.4m/s | -52.4°C | 4.1% | 0hPa | 2.5V | 00:00:00 | 01:47:03 | 08:30:00 | |
| IW2NTF | 2026-08-31 00:20:38 | 44.62169 | 12.21268 | 316° | 24km/h | 25101m | 6.4m/s | -52.4°C | 4% | 0hPa | 2.5V | 08:30:00 | 01:46:55 | 00:00:00 | |
| DO3MHA-11 | 2026-08-31 00:20:36 | 44.62165 | 12.21274 | 306° | 27km/h | 25095m | 5.9m/s | -52.4°C | 4.1% | 0hPa | 2.6V | 00:00:00 | 01:46:54 | 00:00:00 | |
| DO3MHA-12 | 2026-08-31 00:20:35 | 44.62162 | 12.21282 | 302° | 31km/h | 25089m | 5.5m/s | -52.5°C | 4.1% | 0hPa | 2.5V | 00:00:00 | 01:46:53 | 00:00:00 | |
| IW2NTF | 2026-08-31 00:20:32 | 44.62120 | 12.21335 | 327° | 24km/h | 25041m | 5.7m/s | -52.9°C | 4.3% | 0hPa | 2.5V | 08:30:00 | 01:46:45 | 00:00:00 | |
| DO3MHA-11 | 2026-08-31 00:20:26 | 44.62115 | 12.21340 | 320° | 29km/h | 25036m | 5.4m/s | -52.8°C | 4.2% | 0hPa | 2.6V | 00:00:00 | 01:46:44 | 00:00:00 | |
| DO3MHA-12 | 2026-08-31 00:20:25 | 44.62112 | 12.21346 | 307° | 29km/h | 25030m | 7.1m/s | -52.8°C | 4.2% | 0hPa | 2.6V | 00:00:00 | 01:46:43 | 00:00:00 | |
| IW2NTF | 2026-08-31 00:20:19 | 44.62088 | 12.21423 | 295° | 27km/h | 24982m | 6.3m/s | -52.8°C | 4.2% | 0hPa | 2.6V | 08:30:00 | 01:46:35 | 00:00:00 | |
| DO3MHA-11 | 2026-08-31 00:20:16 | 44.62085 | 12.21431 | 294° | 20km/h | 24977m | 5.7m/s | -52.8°C | 4.2% | 0hPa | 2.6V | 00:00:00 | 01:46:34 | 00:00:00 | |
| IW2NTF | 2026-08-31 00:20:08 | 44.62071 | 12.21490 | 281° | 29km/h | 24922m | 5.5m/s | -53°C | 4.3% | 0hPa | 2.6V | 08:30:00 | 01:46:25 | 00:00:00 | |
| DO3MHA-11 | 2026-08-31 00:20:06 | 44.62070 | 12.21500 | 278° | 26km/h | 24916m | 7.3m/s | -53.0°C | 4.3% | 0hPa | 2.6V | 00:00:00 | 01:46:24 | 08:30:00 | |
| DO3MHA-12 | 2026-08-31 00:20:04 | 44.62068 | 12.21523 | 279° | 26km/h | 24903m | 6.5m/s | -53.0°C | 4.3% | 0hPa | 2.5V | 00:00:00 | 01:46:22 | 00:00:00 | |
| IW2NTF | 2026-08-31 00:20:02 | 44.62063 | 12.21585 | 266° | 18km/h | 24862m | 6.7m/s | -52.9°C | 4.3% | 0hPa | 2.5V | 08:30:00 | 01:46:15 | 00:00:00 | |
| DO3MHA-11 | 2026-08-31 00:19:56 | 44.62063 | 12.21591 | 270° | 22km/h | 24856m | 5.4m/s | -52.8°C | 4.3% | 0hPa | 2.6V | 00:00:00 | 01:46:14 | 00:00:00 | |
| DO3MHA-12 | 2026-08-31 00:19:54 | 44.62064 | 12.21606 | 258° | 22km/h | 24844m | 7.1m/s | -52.8°C | 4.2% | 0hPa | 2.6V | 00:00:00 | 01:46:12 | 00:00:00 | |
| IW2NTF | 2026-08-31 00:19:49 | 44.62072 | 12.21664 | 251° | 16km/h | 24801m | 6m/s | -52.6°C | 4.2% | 0hPa | 2.6V | 08:30:00 | 01:46:05 | 00:00:00 | |
| DO3MHA-11 | 2026-08-31 00:19:46 | 44.62073 | 12.21669 | 254° | 15km/h | 24795m | 7.0m/s | -52.5°C | 4.2% | 0hPa | 2.5V | 00:00:00 | 01:46:04 | 00:00:00 | |
| DO3MHA-12 | 2026-08-31 00:19:44 | 44.62075 | 12.21676 | 248° | 16km/h | 24784m | 4.5m/s | -52.4°C | 4.2% | 0hPa | 2.5V | 00:00:00 | 01:46:02 | 00:00:00 | |
| NBG1-10 | 2026-08-31 00:19:42 | 44.62078 | 12.21682 | 227° | 11km/h | 24772m | 6.1m/s | 0°C | 0% | 0hPa | 2.5V | 00:00:00 | 01:46:00 | 00:00:00 | |
| IW2NTF | 2026-08-31 00:19:40 | 44.62090 | 12.21723 | 248° | 11km/h | 24729m | 5.8m/s | -52.3°C | 4.1% | 0hPa | 2.5V | 08:30:00 | 01:45:53 | 00:00:00 | |
| DO3MHA-11 | 2026-08-31 00:19:36 | 44.62088 | 12.21719 | 252° | 9km/h | 24735m | 5.8m/s | -52.2°C | 4.1% | 0hPa | 2.6V | 00:00:00 | 01:45:54 | 00:00:00 | |
| DO3MHA-12 | 2026-08-31 00:19:34 | 44.62090 | 12.21726 | 262° | 9km/h | 24724m | 5.8m/s | -52.3°C | 4.1% | 0hPa | 2.5V | 00:00:00 | 01:45:52 | 00:00:00 | |
| IW2NTF | 2026-08-31 00:19:26 | 44.62106 | 12.21743 | 227° | 15km/h | 24669m | 5.3m/s | -52.5°C | 4.2% | 0hPa | 2.5V | 08:30:00 | 01:45:43 | 00:00:00 | |
| DO3MHA-11 | 2026-08-31 00:19:26 | 44.62103 | 12.21739 | 223° | 9km/h | 24675m | 5.6m/s | -52.4°C | 4.1% | 0hPa | 2.5V | 00:00:00 | 01:45:44 | 00:00:00 | |
| DO3MHA-12 | 2026-08-31 00:19:24 | 44.62108 | 12.21746 | 218° | 7km/h | 24664m | 6.2m/s | -52.4°C | 4.1% | 0hPa | 2.5V | 00:00:00 | 01:45:42 | 00:00:00 | |
| IW2NTF | 2026-08-31 00:19:18 | 44.62124 | 12.21752 | 209° | 7km/h | 24608m | 5.9m/s | -52.5°C | 4.1% | 0hPa | 2.5V | 08:30:00 | 01:45:33 | 00:00:00 | |
| DO3MHA-11 | 2026-08-31 00:19:16 | 44.62123 | 12.21751 | 190° | 9km/h | 24614m | 5.2m/s | -52.4°C | 4.2% | 0hPa | 2.5V | 00:00:00 | 01:45:34 | 00:00:00 | |
| DO3MHA-12 | 2026-08-31 00:19:14 | 44.62126 | 12.21754 | 232° | 9km/h | 24603m | 6.4m/s | -52.4°C | 4.2% | 0hPa | 2.5V | 00:00:00 | 01:45:32 | 08:30:00 | |
| IW2NTF | 2026-08-31 00:19:09 | 44.62140 | 12.21774 | 206° | 5km/h | 24548m | 6.2m/s | -52.5°C | 4.1% | 0hPa | 2.6V | 08:30:00 | 01:45:23 | 00:00:00 | |
| DO3MHA-11 | 2026-08-31 00:19:06 | 44.62139 | 12.21773 | 230° | 4km/h | 24555m | 6.2m/s | -52.5°C | 4.1% | 0hPa | 2.6V | 00:00:00 | 01:45:24 | 00:00:00 | |
| DO3MHA-12 | 2026-08-31 00:19:04 | 44.62141 | 12.21774 | 205° | 4km/h | 24543m | 5.0m/s | -52.5°C | 4.1% | 0hPa | 2.5V | 00:00:00 | 01:45:22 | 00:00:00 | |
| IW2NTF | 2026-08-31 00:19:00 | 44.62143 | 12.21781 | 242° | 5km/h | 24490m | 4.3m/s | -52.5°C | 4.1% | 0hPa | 2.5V | 08:30:00 | 01:45:13 | 00:00:00 | |
| DO3MHA-11 | 2026-08-31 00:18:56 | 44.62142 | 12.21780 | 237° | 4km/h | 24496m | 5.9m/s | -52.4°C | 4.1% | 0hPa | 2.5V | 00:00:00 | 01:45:14 | 00:00:00 | |
| DO3MHA-12 | 2026-08-31 00:18:54 | 44.62143 | 12.21782 | 220° | 5km/h | 24486m | 5.8m/s | -52.5°C | 4.1% | 0hPa | 2.5V | 00:00:00 | 01:45:12 | 00:00:00 | |
| IW2NTF | 2026-08-31 00:18:48 | 44.62140 | 12.21783 | 354° | 7km/h | 24431m | 6.5m/s | -52.8°C | 4.1% | 0hPa | 2.5V | 08:30:00 | 01:45:03 | 00:00:00 | |
| DO3MHA-11 | 2026-08-31 00:18:46 | 44.62141 | 12.21784 | 15° | 4km/h | 24437m | 6.2m/s | -52.7°C | 4.1% | 0hPa | 2.5V | 00:00:00 | 01:45:04 | 00:00:00 | |
| DO3MHA-12 | 2026-08-31 00:18:44 | 44.62138 | 12.21784 | 339° | 5km/h | 24425m | 5.1m/s | -52.8°C | 4.1% | 0hPa | 2.5V | 00:00:00 | 01:45:02 | 00:00:00 | |
| IW2NTF | 2026-08-31 00:18:38 | 44.62135 | 12.21785 | 23° | 9km/h | 24373m | 5.6m/s | -53.1°C | 4.2% | 0hPa | 2.6V | 08:30:00 | 01:44:53 | 00:00:00 | |
| DO3MHA-11 | 2026-08-31 00:18:37 | 44.62137 | 12.21785 | 353° | 11km/h | 24380m | 6.7m/s | -53.1°C | 4.3% | 0hPa | 2.5V | 00:00:00 | 01:44:54 | 08:30:00 | |
| DO3MHA-12 | 2026-08-31 00:18:32 | 44.62126 | 12.21781 | 6° | 11km/h | 24356m | 5.7m/s | -53.0°C | 4.2% | 0hPa | 2.5V | 00:00:00 | 01:44:50 | 00:00:00 | |
| IW2NTF | 2026-08-31 00:18:30 | 44.62107 | 12.21778 | 348° | 11km/h | 24316m | 4.7m/s | -53.2°C | 4.2% | 0hPa | 2.5V | 08:30:00 | 01:44:43 | 00:00:00 | |
| DO3MHA-11 | 2026-08-31 00:18:26 | 44.62110 | 12.21777 | 351° | 15km/h | 24321m | 5.6m/s | -53.1°C | 4.2% | 0hPa | 2.5V | 00:00:00 | 01:44:44 | 00:00:00 | |
| DO3MHA-12 | 2026-08-31 00:18:21 | 44.62093 | 12.21776 | 5° | 13km/h | 24293m | 5.6m/s | -53.3°C | 4.2% | 0hPa | 2.5V | 00:00:00 | 01:44:39 | 00:00:00 | |
| IW2NTF | 2026-08-31 00:18:20 | 44.62073 | 12.21788 | 292° | 11km/h | 24258m | 7.2m/s | -53.5°C | 4.2% | 0hPa | 2.5V | 08:30:00 | 01:44:33 | 00:00:00 | |
| DO3MHA-11 | 2026-08-31 00:18:16 | 44.62074 | 12.21785 | 309° | 9km/h | 24264m | 5.5m/s | -53.4°C | 4.2% | 0hPa | 2.6V | 00:00:00 | 01:44:34 | 00:00:00 | |
| DO3MHA-12 | 2026-08-31 00:18:11 | 44.62073 | 12.21799 | 257° | 13km/h | 24235m | 5.3m/s | -53.5°C | 4.2% | 0hPa | 2.6V | 00:00:00 | 01:44:29 | 00:00:00 | |
| IW2NTF | 2026-08-31 00:18:08 | 44.62059 | 12.21801 | 358° | 15km/h | 24200m | 4.9m/s | -53.7°C | 4.2% | 0hPa | 2.5V | 08:30:00 | 01:44:23 | 00:00:00 | |
| DO3MHA-11 | 2026-08-31 00:18:06 | 44.62062 | 12.21801 | 4° | 16km/h | 24205m | 5.7m/s | -53.6°C | 4.2% | 0hPa | 2.5V | 00:00:00 | 01:44:24 | 00:00:00 | |
| DO3MHA-12 | 2026-08-31 00:18:01 | 44.62044 | 12.21812 | 314° | 15km/h | 24177m | 6.1m/s | -54.0°C | 4.3% | 0hPa | 2.5V | 00:00:00 | 01:44:19 | 00:00:00 | |
| IW2NTF | 2026-08-31 00:17:56 | 44.62027 | 12.21832 | 339° | 11km/h | 24140m | 6.8m/s | -54.3°C | 4.4% | 0hPa | 2.5V | 08:30:00 | 01:44:13 | 00:00:00 | |
| DO3MHA-11 | 2026-08-31 00:17:56 | 44.62030 | 12.21830 | 333° | 16km/h | 24147m | 5.7m/s | -54.2°C | 4.4% | 0hPa | 2.6V | 00:00:00 | 01:44:14 | 00:00:00 | |
| DO3MHA-12 | 2026-08-31 00:17:51 | 44.62016 | 12.21845 | 308° | 22km/h | 24118m | 6.1m/s | -54.4°C | 4.5% | 0hPa | 2.6V | 00:00:00 | 01:44:09 | 00:00:00 | |
| IW2NTF | 2026-08-31 00:17:46 | 44.61995 | 12.21877 | 325° | 22km/h | 24081m | 6.6m/s | -54.5°C | 4.5% | 0hPa | 2.6V | 08:30:00 | 01:44:03 | 00:00:00 | |
| DO3MHA-11 | 2026-08-31 00:17:46 | 44.61999 | 12.21872 | 319° | 22km/h | 24087m | 5.4m/s | -54.4°C | 4.5% | 0hPa | 2.5V | 00:00:00 | 01:44:04 | 00:00:00 | |
| DO3MHA-12 | 2026-08-31 00:17:41 | 44.61975 | 12.21895 | 324° | 24km/h | 24058m | 5.0m/s | -54.5°C | 4.5% | 0hPa | 2.5V | 00:00:00 | 01:43:59 | 08:30:00 | |
| IW2NTF | 2026-08-31 00:17:40 | 44.61951 | 12.21929 | 312° | 27km/h | 24024m | 5.8m/s | -54.4°C | 4.6% | 0hPa | 2.5V | 08:30:00 | 01:43:53 | 00:00:00 | |
| DO3MHA-11 | 2026-08-31 00:17:36 | 44.61956 | 12.21922 | 310° | 27km/h | 24029m | 4.3m/s | -54.4°C | 4.6% | 0hPa | 2.5V | 00:00:00 | 01:43:54 | 00:00:00 | |
| DO3MHA-12 | 2026-08-31 00:17:31 | 44.61931 | 12.21956 | 317° | 27km/h | 24001m | 6.0m/s | -54.3°C | 4.5% | 0hPa | 2.6V | 00:00:00 | 01:43:49 | 00:00:00 | |
| IW2NTF | 2026-08-31 00:17:26 | 44.61904 | 12.21998 | 302° | 27km/h | 23968m | 6.2m/s | -54.3°C | 4.5% | 0hPa | 2.6V | 08:30:00 | 01:43:43 | 00:00:00 | |
| DO3MHA-11 | 2026-08-31 00:17:26 | 44.61907 | 12.21990 | 306° | 27km/h | 23974m | 5.3m/s | -54.3°C | 4.5% | 0hPa | 2.6V | 00:00:00 | 01:43:44 | 00:00:00 | |
| IW2NTF | 2026-08-31 00:17:20 | 44.61865 | 12.22080 | 291° | 24km/h | 23911m | 5m/s | -54.2°C | 4.4% | 0hPa | 2.6V | 08:30:00 | 01:43:33 | 00:00:00 | |
| DO3MHA-12 | 2026-08-31 00:17:20 | 44.61881 | 12.22038 | 308° | 27km/h | 23940m | 6.4m/s | -54.3°C | 4.4% | 0hPa | 2.5V | 00:00:00 | 01:43:38 | 00:00:00 | |
| DO3MHA-11 | 2026-08-31 00:17:16 | 44.61867 | 12.22072 | 298° | 26km/h | 23916m | 5.5m/s | -54.2°C | 4.4% | 0hPa | 2.5V | 00:00:00 | 01:43:34 | 00:00:00 | |
| DO3MHA-12 | 2026-08-31 00:17:10 | 44.61854 | 12.22124 | 297° | 24km/h | 23882m | 4.3m/s | -54.4°C | 4.5% | 0hPa | 2.5V | 00:00:00 | 01:43:28 | 00:00:00 | |
| IW2NTF | 2026-08-31 00:17:08 | 44.61843 | 12.22182 | 279° | 20km/h | 23844m | 4.6m/s | -54.6°C | 4.5% | 0hPa | 2.5V | 08:30:00 | 01:43:21 | 00:00:00 | |
| DO3MHA-11 | 2026-08-31 00:17:06 | 44.61845 | 12.22159 | 276° | 22km/h | 23861m | 5.7m/s | -54.5°C | 4.4% | 0hPa | 2.5V | 00:00:00 | 01:43:24 | 08:30:00 | |
| DO3MHA-12 | 2026-08-31 00:17:00 | 44.61841 | 12.22205 | 281° | 18km/h | 23827m | 5.6m/s | -54.6°C | 4.4% | 0hPa | 2.5V | 00:00:00 | 01:43:18 | 00:00:00 | |
| DO3MHA-11 | 2026-08-31 00:16:56 | 44.61837 | 12.22232 | 271° | 18km/h | 23804m | 5.8m/s | -54.7°C | 4.5% | 0hPa | 2.5V | 00:00:00 | 01:43:14 | 00:00:00 | |
| IW2NTF | 2026-08-31 00:16:54 | 44.61838 | 12.22248 | 267° | 13km/h | 23786m | 4.8m/s | -54.8°C | 4.5% | 0hPa | 2.5V | 08:30:00 | 01:43:11 | 00:00:00 | |
| DO3MHA-12 | 2026-08-31 00:16:50 | 44.61840 | 12.22266 | 259° | 16km/h | 23770m | 5.4m/s | 0°C | 0% | 0hPa | 2.6V | 00:00:00 | 01:43:08 | 00:00:00 | |
| DO3MHA-11 | 2026-08-31 00:16:46 | 44.61840 | 12.22294 | 277° | 13km/h | 23748m | 4.8m/s | -54.9°C | 4.5% | 0hPa | 2.6V | 00:00:00 | 01:43:04 | 00:00:00 | |
| IW2NTF | 2026-08-31 00:16:44 | 44.61842 | 12.22309 | 248° | 13km/h | 23731m | 4.9m/s | -55.1°C | 4.5% | 0hPa | 2.6V | 08:30:00 | 01:43:01 | 00:00:00 | |
| DO3MHA-12 | 2026-08-31 00:16:40 | 44.61844 | 12.22319 | 243° | 13km/h | 23715m | 4.6m/s | 0°C | 0% | 0hPa | 2.5V | 00:00:00 | 01:42:58 | 00:00:00 | |
| DO3MHA-11 | 2026-08-31 00:16:36 | 44.61851 | 12.22334 | 247° | 9km/h | 23692m | 5.5m/s | -55.3°C | 4.7% | 0hPa | 2.5V | 00:00:00 | 01:42:54 | 00:00:00 | |
| IW2NTF | 2026-08-31 00:16:34 | 44.61856 | 12.22347 | 233° | 13km/h | 23674m | 5.5m/s | -55.4°C | 4.6% | 0hPa | 2.6V | 08:30:00 | 01:42:51 | 00:00:00 | |
| DO3MHA-12 | 2026-08-31 00:16:30 | 44.61859 | 12.22354 | 270° | 7km/h | 23657m | 5.0m/s | 0°C | 0% | 0hPa | 2.6V | 00:00:00 | 01:42:48 | 00:00:00 | |
| DO3MHA-11 | 2026-08-31 00:16:26 | 44.61859 | 12.22362 | 287° | 9km/h | 23636m | 6.0m/s | -55.4°C | 4.7% | 0hPa | 2.6V | 00:00:00 | 01:42:44 | 00:00:00 | |
| IW2NTF | 2026-08-31 00:16:24 | 44.61856 | 12.22371 | 294° | 9km/h | 23617m | 6.4m/s | -55.5°C | 4.7% | 0hPa | 2.6V | 08:30:00 | 01:42:41 | 00:00:00 | |
| DO3MHA-12 | 2026-08-31 00:16:20 | 44.61853 | 12.22378 | 316° | 9km/h | 23601m | 6.3m/s | 0°C | 0% | 0hPa | 2.6V | 00:00:00 | 01:42:38 | 00:00:00 | |
| DO3MHA-11 | 2026-08-31 00:16:16 | 44.61848 | 12.22388 | 288° | 11km/h | 23578m | 4.7m/s | -55.6°C | 4.8% | 0hPa | 2.6V | 00:00:00 | 01:42:34 | 00:00:00 | |
| IW2NTF | 2026-08-31 00:16:15 | 44.61844 | 12.22396 | 310° | 11km/h | 23561m | 5.1m/s | -55.6°C | 4.8% | 0hPa | 2.6V | 08:30:00 | 01:42:31 | 00:00:00 | |
| DO3MHA-12 | 2026-08-31 00:16:10 | 44.61839 | 12.22406 | 305° | 15km/h | 23545m | 5.0m/s | 0°C | 0% | 0hPa | 2.6V | 00:00:00 | 01:42:28 | 00:00:00 | |
| DO3MHA-11 | 2026-08-31 00:16:06 | 44.61826 | 12.22416 | 342° | 18km/h | 23523m | 5.7m/s | -55.6°C | 4.8% | 0hPa | 2.6V | 00:00:00 | 01:42:24 | 00:00:00 | |
| IW2NTF | 2026-08-31 00:16:05 | 44.61815 | 12.22422 | 339° | 16km/h | 23505m | 6.7m/s | -55.6°C | 4.8% | 0hPa | 2.5V | 08:30:00 | 01:42:21 | 00:00:00 | |
| DO3MHA-11 | 2026-08-31 00:15:56 | 44.61788 | 12.22451 | 314° | 18km/h | 23465m | 5.3m/s | -55.7°C | 4.8% | 0hPa | 2.6V | 00:00:00 | 01:42:14 | 00:00:00 | |
| IW2NTF | 2026-08-31 00:15:54 | 44.61779 | 12.22466 | 309° | 15km/h | 23447m | 5.2m/s | -55.7°C | 4.8% | 0hPa | 2.6V | 08:30:00 | 01:42:11 | 00:00:00 | |
| DO3MHA-11 | 2026-08-31 00:15:46 | 44.61756 | 12.22494 | 315° | 24km/h | 23406m | 6.8m/s | -55.5°C | 4.8% | 0hPa | 2.5V | 00:00:00 | 01:42:04 | 00:00:00 | |
| IW2NTF | 2026-08-31 00:15:44 | 44.61744 | 12.22515 | 299° | 26km/h | 23388m | 7.2m/s | -55.5°C | 4.8% | 0hPa | 2.5V | 08:30:00 | 01:42:01 | 00:00:00 | |
| DO3MHA-11 | 2026-08-31 00:15:36 | 44.61727 | 12.22564 | 301° | 26km/h | 23347m | 6.2m/s | -55.5°C | 4.7% | 0hPa | 2.6V | 00:00:00 | 01:41:54 | 08:30:00 | |
| IW2NTF | 2026-08-31 00:15:35 | 44.61717 | 12.22581 | 310° | 24km/h | 23331m | 5.7m/s | -55.5°C | 4.8% | 0hPa | 2.5V | 08:30:00 | 01:41:51 | 00:00:00 | |
| DO3MHA-11 | 2026-08-31 00:15:26 | 44.61696 | 12.22648 | 285° | 27km/h | 23289m | 7.3m/s | -55.5°C | 4.8% | 0hPa | 2.6V | 00:00:00 | 01:41:44 | 00:00:00 | |
| IW2NTF | 2026-08-31 00:15:25 | 44.61693 | 12.22677 | 281° | 26km/h | 23271m | 5.7m/s | -55.4°C | 4.8% | 0hPa | 2.6V | 08:30:00 | 01:41:41 | 00:00:00 | |
| DO3MHA-11 | 2026-08-31 00:15:17 | 44.61687 | 12.22744 | 283° | 33km/h | 23231m | 5.1m/s | -55.2°C | 4.8% | 0hPa | 2.5V | 00:00:00 | 01:41:34 | 00:00:00 | |
| IW2NTF | 2026-08-31 00:15:14 | 44.61686 | 12.22779 | 265° | 35km/h | 23212m | 4.9m/s | -55.2°C | 4.8% | 0hPa | 2.5V | 08:30:00 | 01:41:31 | 00:00:00 | |
| DO3MHA-11 | 2026-08-31 00:15:06 | 44.61693 | 12.22862 | 265° | 33km/h | 23171m | 7.0m/s | -55.1°C | 4.8% | 0hPa | 2.5V | 00:00:00 | 01:41:24 | 00:00:00 | |
| IW2NTF | 2026-08-31 00:15:05 | 44.61694 | 12.22894 | 264° | 29km/h | 23154m | 6.5m/s | -55°C | 4.7% | 0hPa | 2.6V | 08:30:00 | 01:41:21 | 00:00:00 | |
| DO3MHA-11 | 2026-08-31 00:14:56 | 44.61714 | 12.22974 | 248° | 27km/h | 23111m | 6.3m/s | -54.6°C | 4.6% | 0hPa | 2.5V | 00:00:00 | 01:41:14 | 00:00:00 | |
| IW2NTF | 2026-08-31 00:14:54 | 44.61728 | 12.23010 | 252° | 26km/h | 23086m | 6.3m/s | -54.5°C | 4.6% | 0hPa | 2.5V | 08:30:00 | 01:41:10 | 00:00:00 | |
| DO3MHA-11 | 2026-08-31 00:14:46 | 44.61736 | 12.23063 | 266° | 26km/h | 23052m | 5.6m/s | -54.3°C | 4.5% | 0hPa | 2.5V | 00:00:00 | 01:41:04 | 00:00:00 | |
| IW2NTF | 2026-08-31 00:14:44 | 44.61741 | 12.23099 | 253° | 26km/h | 23029m | 6.6m/s | -54.5°C | 4.5% | 0hPa | 2.5V | 08:30:00 | 01:41:00 | 00:00:00 | |
| DO3MHA-11 | 2026-08-31 00:14:36 | 44.61752 | 12.23150 | 243° | 24km/h | 22995m | 5.2m/s | -54.3°C | 4.4% | 0hPa | 2.5V | 00:00:00 | 01:40:54 | 00:00:00 | |
| IW2NTF | 2026-08-31 00:14:35 | 44.61763 | 12.23187 | 244° | 26km/h | 22974m | 6.4m/s | -54.3°C | 4.4% | 0hPa | 2.6V | 08:30:00 | 01:40:50 | 00:00:00 | |
| IW2NTF | 2026-08-31 00:14:27 | 44.61786 | 12.23245 | 255° | 15km/h | 22915m | 4.3m/s | -54.5°C | 4.6% | 0hPa | 2.5V | 08:30:00 | 01:40:40 | 00:00:00 | |
| DO3MHA-11 | 2026-08-31 00:14:26 | 44.61778 | 12.23226 | 229° | 15km/h | 22939m | 5.6m/s | -54.4°C | 4.5% | 0hPa | 2.6V | 00:00:00 | 01:40:44 | 00:00:00 | |
| DO3MHA-11 | 2026-08-31 00:14:16 | 44.61796 | 12.23268 | 241° | 15km/h | 22882m | 5.4m/s | -54.5°C | 4.6% | 0hPa | 2.6V | 00:00:00 | 01:40:34 | 00:00:00 | |
| IW2NTF | 2026-08-31 00:14:14 | 44.61807 | 12.23283 | 226° | 18km/h | 22858m | 6.4m/s | -54.5°C | 4.5% | 0hPa | 2.6V | 08:30:00 | 01:40:30 | 00:00:00 | |
| IW2NTF | 2026-08-31 00:14:07 | 44.61823 | 12.23317 | 233° | 16km/h | 22801m | 4.9m/s | -54.4°C | 4.5% | 0hPa | 2.5V | 08:30:00 | 01:40:20 | 00:00:00 | |
| DO3MHA-11 | 2026-08-31 00:14:06 | 44.61819 | 12.23304 | 243° | 15km/h | 22824m | 6.5m/s | -54.4°C | 4.5% | 0hPa | 2.6V | 00:00:00 | 01:40:24 | 08:30:00 | |
| DO3MHA-11 | 2026-08-31 00:13:56 | 44.61843 | 12.23346 | 219° | 16km/h | 22768m | 5.5m/s | -54.3°C | 4.5% | 0hPa | 2.5V | 00:00:00 | 01:40:14 | 00:00:00 | |
| IW2NTF | 2026-08-31 00:13:51 | 44.61863 | 12.23371 | 242° | 11km/h | 22732m | 6.5m/s | -54.3°C | 4.5% | 0hPa | 2.5V | 08:30:00 | 01:40:08 | 00:00:00 | |
| DO3MHA-11 | 2026-08-31 00:13:46 | 44.61868 | 12.23386 | 241° | 18km/h | 22710m | 5.5m/s | -54.2°C | 4.5% | 0hPa | 2.6V | 00:00:00 | 01:40:04 | 00:00:00 | |
| IW2NTF | 2026-08-31 00:13:44 | 44.61886 | 12.23412 | 212° | 22km/h | 22675m | 5.3m/s | -54.3°C | 4.5% | 0hPa | 2.6V | 08:30:00 | 01:39:58 | 00:00:00 | |
| DO3MHA-11 | 2026-08-31 00:13:36 | 44.61902 | 12.23430 | 219° | 15km/h | 22652m | 6.0m/s | -54.3°C | 4.5% | 0hPa | 2.5V | 00:00:00 | 01:39:54 | 00:00:00 | |
| IW2NTF | 2026-08-31 00:13:34 | 44.61915 | 12.23452 | 226° | 11km/h | 22616m | 5.4m/s | -54.2°C | 4.5% | 0hPa | 2.5V | 08:30:00 | 01:39:48 | 00:00:00 | |
| DO3MHA-11 | 2026-08-31 00:13:26 | 44.61925 | 12.23467 | 222° | 16km/h | 22594m | 5.5m/s | -54.1°C | 4.5% | 0hPa | 2.5V | 00:00:00 | 01:39:44 | 00:00:00 | |
| IW2NTF | 2026-08-31 00:13:24 | 44.61939 | 12.23497 | 245° | 15km/h | 22561m | 5.8m/s | -54.1°C | 4.4% | 0hPa | 2.5V | 08:30:00 | 01:39:38 | 00:00:00 | |
| DO3MHA-11 | 2026-08-31 00:13:16 | 44.61945 | 12.23514 | 236° | 15km/h | 22539m | 4.4m/s | -54.0°C | 4.4% | 0hPa | 2.5V | 00:00:00 | 01:39:34 | 00:00:00 | |
| IW2NTF | 2026-08-31 00:13:15 | 44.61966 | 12.23538 | 216° | 18km/h | 22506m | 5.5m/s | -53.9°C | 4.3% | 0hPa | 2.5V | 08:30:00 | 01:39:28 | 00:00:00 | |
| IW2NTF | 2026-08-31 00:13:05 | 44.62002 | 12.23585 | 202° | 20km/h | 22449m | 5.2m/s | -54°C | 4.4% | 0hPa | 2.6V | 08:30:00 | 01:39:18 | 00:00:00 | |
| IW2NTF | 2026-08-31 00:12:55 | 44.62050 | 12.23621 | 230° | 24km/h | 22396m | 4.9m/s | -54.2°C | 4.3% | 0hPa | 2.7V | 08:30:00 | 01:39:08 | 00:00:00 | |
| IW2NTF | 2026-08-31 00:12:45 | 44.62093 | 12.23645 | 182° | 20km/h | 22342m | 6.2m/s | -54.4°C | 4.5% | 0hPa | 2.6V | 08:30:00 | 01:38:58 | 00:00:00 | |
| IW2NTF | 2026-08-31 00:12:35 | 44.62128 | 12.23652 | 159° | 13km/h | 22287m | 5.4m/s | -54.5°C | 4.5% | 0hPa | 2.6V | 08:30:00 | 01:38:48 | 00:00:00 | |
| IW2NTF | 2026-08-31 00:12:23 | 44.62160 | 12.23629 | 218° | 5km/h | 22219m | 5m/s | -54.4°C | 4.5% | 0hPa | 2.5V | 08:30:00 | 01:38:36 | 00:00:00 | |
| IW2NTF | 2026-08-31 00:12:14 | 44.62171 | 12.23628 | 222° | 5km/h | 22164m | 5.3m/s | -54.5°C | 4.5% | 0hPa | 2.6V | 08:30:00 | 01:38:26 | 00:00:00 | |
| IW2NTF | 2026-08-31 00:12:03 | 44.62173 | 12.23622 | 56° | 7km/h | 22110m | 5m/s | -54.5°C | 4.5% | 0hPa | 2.7V | 08:30:00 | 01:38:16 | 00:00:00 | |
| IW2NTF | 2026-08-31 00:11:53 | 44.62167 | 12.23607 | 64° | 7km/h | 22055m | 6m/s | -54.7°C | 4.5% | 0hPa | 2.6V | 08:30:00 | 01:38:06 | 00:00:00 | |
| IW2NTF | 2026-08-31 00:11:43 | 44.62154 | 12.23578 | 43° | 9km/h | 22000m | 6.6m/s | -54.9°C | 4.6% | 0hPa | 2.6V | 08:30:00 | 01:37:56 | 00:00:00 | |
| IW2NTF | 2026-08-31 00:11:33 | 44.62138 | 12.23567 | 28° | 5km/h | 21945m | 5.5m/s | -54.9°C | 4.4% | 0hPa | 2.5V | 08:30:00 | 01:37:46 | 00:00:00 | |
| DO3MHA-11 | 2026-08-31 00:11:27 | 44.62136 | 12.23567 | 5° | 9km/h | 21940m | 5.4m/s | -54.8°C | 4.5% | 0hPa | 2.5V | 00:00:00 | 01:37:45 | 00:00:00 | |
| IW2NTF | 2026-08-31 00:11:23 | 44.62119 | 12.23555 | 61° | 15km/h | 21890m | 6.4m/s | -55.2°C | 4.6% | 0hPa | 2.5V | 08:30:00 | 01:37:36 | 00:00:00 | |
| DO3MHA-11 | 2026-08-31 00:11:17 | 44.62117 | 12.23550 | 70° | 15km/h | 21884m | 5.8m/s | -55.2°C | 4.6% | 0hPa | 2.5V | 00:00:00 | 01:37:35 | 00:00:00 | |
| IW2NTF | 2026-08-31 00:11:13 | 44.62098 | 12.23511 | 57° | 20km/h | 21833m | 6.8m/s | -55.2°C | 4.6% | 0hPa | 2.5V | 08:30:00 | 01:37:26 | 00:00:00 | |
| DO3MHA-11 | 2026-08-31 00:11:07 | 44.62095 | 12.23504 | 63° | 26km/h | 21827m | 5.3m/s | -55.1°C | 4.6% | 0hPa | 2.7V | 00:00:00 | 01:37:25 | 00:00:00 | |
| IW2NTF | 2026-08-31 00:11:03 | 44.62060 | 12.23442 | 35° | 18km/h | 21777m | 6.5m/s | -55.1°C | 4.5% | 0hPa | 2.7V | 08:30:00 | 01:37:16 | 00:00:00 | |
| IW2NTF | 2026-08-31 00:10:54 | 44.62012 | 12.23383 | 46° | 31km/h | 21719m | 7.2m/s | -55.7°C | 4.7% | 0hPa | 2.5V | 08:30:00 | 01:37:06 | 00:00:00 | |
| DO3MHA-11 | 2026-08-31 00:10:47 | 44.62007 | 12.23375 | 44° | 31km/h | 21714m | 4.2m/s | -55.7°C | 4.7% | 0hPa | 2.6V | 00:00:00 | 01:37:05 | 00:00:00 | |
| IW2NTF | 2026-08-31 00:10:43 | 44.61950 | 12.23335 | 27° | 26km/h | 21662m | 5.3m/s | -55.8°C | 4.8% | 0hPa | 2.6V | 08:30:00 | 01:36:56 | 00:00:00 | |
| IW2NTF | 2026-08-31 00:10:33 | 44.61880 | 12.23295 | 19° | 29km/h | 21607m | 6.1m/s | -55.9°C | 4.7% | 0hPa | 2.5V | 08:30:00 | 01:36:46 | 00:00:00 | |
| DO3MHA-11 | 2026-08-31 00:10:28 | 44.61880 | 12.23295 | 20° | 24km/h | 21607m | 6.1m/s | -55.8°C | 4.7% | 0hPa | 2.5V | 00:00:00 | 01:36:46 | 00:00:00 | |
| IW2NTF | 2026-08-31 00:10:20 | 44.61808 | 12.23277 | 0° | 27km/h | 21552m | 5.6m/s | -56°C | 4.7% | 0hPa | 2.5V | 08:30:00 | 01:36:36 | 00:00:00 | |
| IW2NTF | 2026-08-31 00:10:13 | 44.61742 | 12.23290 | 346° | 33km/h | 21498m | 4.5m/s | -56.3°C | 4.8% | 0hPa | 2.5V | 08:30:00 | 01:36:26 | 00:00:00 | |
| IW2NTF | 2026-08-31 00:10:03 | 44.61671 | 12.23323 | 330° | 37km/h | 21443m | 5.4m/s | 0°C | 0% | 0hPa | 2.6V | 08:30:00 | 01:36:16 | 00:00:00 | |
| IW2NTF | 2026-08-31 00:09:53 | 44.61603 | 12.23363 | 352° | 24km/h | 21390m | 6.6m/s | -57.5°C | 5% | 0hPa | 2.7V | 08:30:00 | 01:36:06 | 00:00:00 | |
| IW2NTF | 2026-08-31 00:09:43 | 44.61538 | 12.23378 | 349° | 18km/h | 21337m | 4.9m/s | -57.4°C | 5.2% | 0hPa | 2.6V | 08:30:00 | 01:35:56 | 00:00:00 | |
| IW2NTF | 2026-08-31 00:09:33 | 44.61498 | 12.23387 | 330° | 16km/h | 21282m | 5.5m/s | -57.4°C | 5.2% | 0hPa | 2.7V | 08:30:00 | 01:35:46 | 00:00:00 | |
| IW2NTF | 2026-08-31 00:09:23 | 44.61465 | 12.23414 | 282° | 9km/h | 21227m | 5m/s | -57.1°C | 5.1% | 0hPa | 2.5V | 08:30:00 | 01:35:36 | 00:00:00 | |
| IW2NTF | 2026-08-31 00:09:13 | 44.61449 | 12.23433 | 290° | 4km/h | 21175m | 4.3m/s | -56.8°C | 5% | 0hPa | 2.5V | 08:30:00 | 01:35:26 | 00:00:00 | |
| IW2NTF | 2026-08-31 00:09:01 | 44.61448 | 12.23443 | 348° | 4km/h | 21107m | 5.8m/s | -56.5°C | 4.8% | 0hPa | 2.7V | 08:30:00 | 01:35:14 | 00:00:00 | |
| IW2NTF | 2026-08-31 00:08:46 | 44.61456 | 12.23430 | 125° | 13km/h | 21051m | 5.5m/s | -56.5°C | 4.9% | 0hPa | 2.5V | 08:30:00 | 01:35:04 | 00:00:00 | |
| IW2NTF | 2026-08-31 00:08:41 | 44.61463 | 12.23392 | 108° | 15km/h | 20997m | 4.4m/s | -56.8°C | 5% | 0hPa | 2.7V | 08:30:00 | 01:34:54 | 00:00:00 | |
| DO3MHA-11 | 2026-08-31 00:08:31 | 44.61466 | 12.23365 | 106° | 5km/h | 20971m | 5.9m/s | -56.7°C | 4.9% | 0hPa | 2.5V | 00:00:00 | 01:34:49 | 00:00:00 | |
| IW2NTF | 2026-08-31 00:08:26 | 44.61467 | 12.23350 | 77° | 2km/h | 20933m | 6.3m/s | -56.6°C | 4.9% | 0hPa | 2.5V | 08:30:00 | 01:34:42 | 00:00:00 | |
| DO3MHA-11 | 2026-08-31 00:08:21 | 44.61466 | 12.23345 | 91° | 7km/h | 20918m | 6.2m/s | -56.5°C | 4.8% | 0hPa | 2.5V | 00:00:00 | 01:34:39 | 00:00:00 | |
| IW2NTF | 2026-08-31 00:08:16 | 44.61459 | 12.23335 | 349° | 5km/h | 20880m | 4.9m/s | -56.5°C | 4.8% | 0hPa | 2.5V | 08:30:00 | 01:34:32 | 00:00:00 | |
| DO3MHA-11 | 2026-08-31 00:08:11 | 44.61453 | 12.23338 | 342° | 11km/h | 20864m | 5.0m/s | -56.5°C | 4.8% | 0hPa | 2.7V | 00:00:00 | 01:34:29 | 00:00:00 | |
| IW2NTF | 2026-08-31 00:08:04 | 44.61436 | 12.23336 | 16° | 15km/h | 20828m | 4.5m/s | -56.7°C | 4.8% | 0hPa | 2.7V | 08:30:00 | 01:34:22 | 00:00:00 | |
| DO3MHA-11 | 2026-08-31 00:08:01 | 44.61423 | 12.23332 | 6° | 20km/h | 20812m | 6.5m/s | -56.9°C | 4.9% | 0hPa | 2.5V | 00:00:00 | 01:34:19 | 00:00:00 | |
| IW2NTF | 2026-08-31 00:07:56 | 44.61385 | 12.23342 | 340° | 22km/h | 20774m | 4.5m/s | -57.5°C | 5.1% | 0hPa | 2.5V | 08:30:00 | 01:34:12 | 00:00:00 | |
| DO3MHA-11 | 2026-08-31 00:07:51 | 44.61371 | 12.23347 | 355° | 18km/h | 20758m | 6.3m/s | -57.4°C | 5.1% | 0hPa | 2.7V | 00:00:00 | 01:34:09 | 00:00:00 | |
| IW2NTF | 2026-08-31 00:07:46 | 44.61338 | 12.23343 | 354° | 20km/h | 20719m | 4.4m/s | -57.4°C | 5.1% | 0hPa | 2.7V | 08:30:00 | 01:34:02 | 00:00:00 | |
| DO3MHA-11 | 2026-08-31 00:07:41 | 44.61325 | 12.23347 | 337° | 13km/h | 20704m | 4.2m/s | -57.3°C | 5.1% | 0hPa | 2.5V | 00:00:00 | 01:33:59 | 00:00:00 | |
| IW2NTF | 2026-08-31 00:07:33 | 44.61289 | 12.23354 | 352° | 13km/h | 20648m | 5.8m/s | -57.4°C | 5% | 0hPa | 2.5V | 08:30:00 | 01:33:48 | 00:00:00 | |
| DO3MHA-11 | 2026-08-31 00:07:31 | 44.61293 | 12.23354 | 3° | 9km/h | 20654m | 4.9m/s | -57.3°C | 5.0% | 0hPa | 2.7V | 00:00:00 | 01:33:49 | 08:30:00 | |
| IW2NTF | 2026-08-31 00:07:24 | 44.61273 | 12.23355 | 61° | 7km/h | 20593m | 5.4m/s | -57.6°C | 5.1% | 0hPa | 2.7V | 08:30:00 | 01:33:38 | 00:00:00 | |
| DO3MHA-11 | 2026-08-31 00:07:21 | 44.61274 | 12.23357 | 57° | 5km/h | 20599m | 4.8m/s | -57.5°C | 5.1% | 0hPa | 2.5V | 00:00:00 | 01:33:39 | 00:00:00 | |
| IW2NTF | 2026-08-31 00:07:13 | 44.61261 | 12.23346 | 50° | 5km/h | 20537m | 5.7m/s | -57.8°C | 5.1% | 0hPa | 2.5V | 08:30:00 | 01:33:28 | 00:00:00 | |
| DO3MHA-11 | 2026-08-31 00:07:11 | 44.61262 | 12.23347 | 19° | 7km/h | 20543m | 5.8m/s | -57.7°C | 5.1% | 0hPa | 2.7V | 00:00:00 | 01:33:29 | 00:00:00 | |
| IW2NTF | 2026-08-31 00:07:01 | 44.61253 | 12.23324 | 344° | 7km/h | 20480m | 6.8m/s | -58°C | 5.2% | 0hPa | 2.7V | 08:30:00 | 01:33:18 | 00:00:00 | |
| DO3MHA-11 | 2026-08-31 00:07:01 | 44.61254 | 12.23324 | 349° | 7km/h | 20486m | 4.8m/s | -58.0°C | 5.2% | 0hPa | 2.7V | 00:00:00 | 01:33:19 | 00:00:00 | |
| IW2NTF | 2026-08-31 00:06:55 | 44.61234 | 12.23319 | 15° | 9km/h | 20423m | 5.6m/s | -58.3°C | 5.3% | 0hPa | 2.7V | 08:30:00 | 01:33:08 | 00:00:00 | |
| DO3MHA-11 | 2026-08-31 00:06:51 | 44.61236 | 12.23320 | 32° | 11km/h | 20429m | 5.6m/s | -58.3°C | 5.3% | 0hPa | 2.5V | 00:00:00 | 01:33:09 | 00:00:00 | |
| IW2NTF | 2026-08-31 00:06:45 | 44.61207 | 12.23339 | 308° | 18km/h | 20368m | 6.3m/s | -58.3°C | 5.4% | 0hPa | 2.5V | 08:30:00 | 01:32:58 | 00:00:00 | |
| DO3MHA-11 | 2026-08-31 00:06:41 | 44.61210 | 12.23334 | 308° | 13km/h | 20374m | 5.5m/s | -58.3°C | 5.4% | 0hPa | 2.5V | 00:00:00 | 01:32:59 | 00:00:00 | |
| IW2NTF | 2026-08-31 00:06:35 | 44.61195 | 12.23372 | 318° | 5km/h | 20310m | 6.7m/s | -58°C | 5.3% | 0hPa | 2.5V | 08:30:00 | 01:32:48 | 00:00:00 | |
| DO3MHA-11 | 2026-08-31 00:06:31 | 44.61196 | 12.23371 | 297° | 7km/h | 20317m | 5.1m/s | -58.0°C | 5.4% | 0hPa | 2.7V | 00:00:00 | 01:32:49 | 00:00:00 | |
| IW2NTF | 2026-08-31 00:06:25 | 44.61189 | 12.23395 | 303° | 5km/h | 20253m | 6.7m/s | -57.7°C | 5.2% | 0hPa | 2.5V | 08:30:00 | 01:32:38 | 00:00:00 | |
| DO3MHA-11 | 2026-08-31 00:06:21 | 44.61189 | 12.23393 | 277° | 5km/h | 20259m | 4.9m/s | -57.7°C | 5.2% | 0hPa | 2.5V | 00:00:00 | 01:32:39 | 00:00:00 | |
| IW2NTF | 2026-08-31 00:06:14 | 44.61177 | 12.23388 | 20° | 5km/h | 20196m | 5.4m/s | -57.3°C | 5.1% | 0hPa | 2.5V | 08:30:00 | 01:32:28 | 00:00:00 | |
| DO3MHA-11 | 2026-08-31 00:06:11 | 44.61179 | 12.23389 | 28° | 5km/h | 20203m | 6.6m/s | -57.3°C | 5.0% | 0hPa | 2.7V | 00:00:00 | 01:32:29 | 00:00:00 | |
| IW2NTF | 2026-08-31 00:06:05 | 44.61168 | 12.23370 | 46° | 13km/h | 20140m | 5.2m/s | -57.1°C | 4.9% | 0hPa | 2.7V | 08:30:00 | 01:32:18 | 00:00:00 | |
| DO3MHA-11 | 2026-08-31 00:06:01 | 44.61170 | 12.23373 | 55° | 13km/h | 20146m | 6.6m/s | -57.1°C | 5.0% | 0hPa | 2.7V | 00:00:00 | 01:32:19 | 08:30:00 | |
| IW2NTF | 2026-08-31 00:05:55 | 44.61161 | 12.23328 | 91° | 13km/h | 20085m | 4.7m/s | -57.4°C | 4.9% | 0hPa | 2.7V | 08:30:00 | 01:32:08 | 00:00:00 | |
| DO3MHA-11 | 2026-08-31 00:05:51 | 44.61161 | 12.23332 | 96° | 16km/h | 20090m | 4.2m/s | -57.3°C | 5.0% | 0hPa | 2.5V | 00:00:00 | 01:32:09 | 00:00:00 | |
| IW2NTF | 2026-08-31 00:05:45 | 44.61156 | 12.23264 | 90° | 22km/h | 20031m | 5.3m/s | -57.6°C | 5.2% | 0hPa | 2.5V | 08:30:00 | 01:31:58 | 00:00:00 | |
| DO3MHA-11 | 2026-08-31 00:05:41 | 44.61156 | 12.23272 | 92° | 16km/h | 20036m | 4.4m/s | -57.6°C | 5.1% | 0hPa | 2.7V | 00:00:00 | 01:31:59 | 00:00:00 | |
| IW2NTF | 2026-08-31 00:05:35 | 44.61140 | 12.23208 | 60° | 16km/h | 19977m | 4.5m/s | -57.6°C | 5.2% | 0hPa | 2.7V | 08:30:00 | 01:31:48 | 00:00:00 | |
| DO3MHA-11 | 2026-08-31 00:05:31 | 44.61142 | 12.23213 | 57° | 15km/h | 19982m | 5.6m/s | -57.6°C | 5.2% | 0hPa | 2.7V | 00:00:00 | 01:31:49 | 00:00:00 | |
| IW2NTF | 2026-08-31 00:05:25 | 44.61118 | 12.23164 | 33° | 22km/h | 19922m | 5.4m/s | -57.4°C | 5.1% | 0hPa | 2.7V | 08:30:00 | 01:31:38 | 00:00:00 | |
| DO3MHA-11 | 2026-08-31 00:05:21 | 44.61122 | 12.23168 | 34° | 18km/h | 19928m | 6.1m/s | -57.3°C | 5.1% | 0hPa | 2.7V | 00:00:00 | 01:31:39 | 00:00:00 | |
| IW2NTF | 2026-08-31 00:05:15 | 44.61031 | 12.23107 | 6° | 20km/h | 19824m | 5.5m/s | -56.8°C | 4.8% | 0hPa | 2.7V | 08:30:00 | 01:31:20 | 00:00:00 | |
| IW2NTF | 2026-08-31 00:05:10 | 44.61007 | 12.23100 | 18° | 11km/h | 19792m | 5.4m/s | -57.3°C | 4.9% | 0hPa | 2.7V | 08:30:00 | 01:31:14 | 00:00:00 | |
| IW2NTF | 2026-08-31 00:04:51 | 44.60969 | 12.23100 | 340° | 15km/h | 19740m | 5.4m/s | -57.4°C | 5.1% | 0hPa | 2.5V | 08:30:00 | 01:31:04 | 00:00:00 | |
| IW2NTF | 2026-08-31 00:04:42 | 44.60956 | 12.23102 | 0° | 9km/h | 19688m | 4.8m/s | -57.5°C | 5.1% | 0hPa | 2.7V | 08:30:00 | 01:30:54 | 00:00:00 | |
| IW2NTF | 2026-08-31 00:04:31 | 44.60930 | 12.23126 | 285° | 9km/h | 19635m | 3.8m/s | -57.6°C | 5.2% | 0hPa | 2.7V | 08:30:00 | 01:30:44 | 00:00:00 | |
| IW2NTF | 2026-08-31 00:04:21 | 44.60913 | 12.23146 | 291° | 16km/h | 19584m | 4.1m/s | -57.2°C | 5.1% | 0hPa | 2.5V | 08:30:00 | 01:30:34 | 00:00:00 | |
| IW2NTF | 2026-08-31 00:04:12 | 44.60894 | 12.23160 | 11° | 11km/h | 19535m | 5.4m/s | -56.7°C | 5.1% | 0hPa | 2.5V | 08:30:00 | 01:30:24 | 00:00:00 | |
| IW2NTF | 2026-08-31 00:04:03 | 44.60870 | 12.23171 | 338° | 11km/h | 19481m | 6.9m/s | -56.4°C | 4.9% | 0hPa | 2.6V | 08:30:00 | 01:30:14 | 00:00:00 | |
| IW2NTF | 2026-08-31 00:03:52 | 44.60844 | 12.23162 | 343° | 7km/h | 19427m | 4.3m/s | -56.3°C | 4.7% | 0hPa | 2.6V | 08:30:00 | 01:30:04 | 00:00:00 | |
| DO3MHA-11 | 2026-08-31 00:03:51 | 44.60856 | 12.23168 | 20° | 9km/h | 19454m | 5.7m/s | -56.2°C | 4.8% | 0hPa | 2.7V | 00:00:00 | 01:30:09 | 00:00:00 | |
| IW2NTF | 2026-08-31 00:03:41 | 44.60817 | 12.23159 | 13° | 16km/h | 19374m | 4.3m/s | -56.5°C | 4.9% | 0hPa | 2.7V | 08:30:00 | 01:29:54 | 00:00:00 | |
| DO3MHA-11 | 2026-08-31 00:03:39 | 44.60829 | 12.23163 | 19° | 15km/h | 19390m | 4.7m/s | -56.5°C | 4.9% | 0hPa | 2.6V | 00:00:00 | 01:29:57 | 00:00:00 | |
| IW2NTF | 2026-08-31 00:03:32 | 44.60790 | 12.23128 | 50° | 15km/h | 19320m | 5.4m/s | -56.2°C | 4.7% | 0hPa | 2.7V | 08:30:00 | 01:29:44 | 00:00:00 | |
| DO3MHA-11 | 2026-08-31 00:03:32 | 44.60795 | 12.23140 | 60° | 18km/h | 19338m | 6.5m/s | -56.3°C | 4.8% | 0hPa | 2.5V | 00:00:00 | 01:29:47 | 00:00:00 | |
| IW2NTF | 2026-08-31 00:03:21 | 44.60767 | 12.23075 | 100° | 13km/h | 19268m | 5.6m/s | -56.8°C | 4.9% | 0hPa | 2.5V | 08:30:00 | 01:29:34 | 00:00:00 | |
| DO3MHA-11 | 2026-08-31 00:03:20 | 44.60767 | 12.23089 | 64° | 13km/h | 19283m | 5.2m/s | -56.6°C | 4.9% | 0hPa | 2.7V | 00:00:00 | 01:29:37 | 00:00:00 | |
| IW2NTF | 2026-08-31 00:03:12 | 44.60769 | 12.23024 | 104° | 18km/h | 19216m | 5.4m/s | -57°C | 5% | 0hPa | 2.7V | 08:30:00 | 01:29:24 | 00:00:00 | |
| DO3MHA-11 | 2026-08-31 00:03:11 | 44.60767 | 12.23042 | 90° | 20km/h | 19231m | 3.7m/s | -57.0°C | 5.0% | 0hPa | 2.6V | 00:00:00 | 01:29:27 | 08:30:00 | |
| IW2NTF | 2026-08-31 00:03:02 | 44.60788 | 12.22946 | 102° | 27km/h | 19163m | 5m/s | -56.9°C | 4.9% | 0hPa | 2.7V | 08:30:00 | 01:29:14 | 00:00:00 | |
| IW2NTF | 2026-08-31 00:02:53 | 44.60787 | 12.22861 | 93° | 26km/h | 19111m | 4.7m/s | -56.7°C | 4.9% | 0hPa | 2.5V | 08:30:00 | 01:29:04 | 00:00:00 | |
| DO3MHA-11 | 2026-08-31 00:02:44 | 44.60733 | 12.22672 | 54° | 13km/h | 18916m | 5.6m/s | -56.3°C | 4.9% | 0hPa | 2.6V | 00:00:00 | 01:28:27 | 00:00:00 | |
| IW2NTF | 2026-08-31 00:02:42 | 44.60786 | 12.22788 | 82° | 20km/h | 19059m | 5.6m/s | -57°C | 5% | 0hPa | 2.5V | 08:30:00 | 01:28:54 | 00:00:00 | |
| IW2NTF | 2026-08-31 00:02:32 | 44.60769 | 12.22727 | 58° | 16km/h | 19009m | 6m/s | -56.9°C | 5.1% | 0hPa | 2.6V | 08:30:00 | 01:28:44 | 00:00:00 | |
| DO3MHA-11 | 2026-08-31 00:02:29 | 44.60726 | 12.22627 | 87° | 13km/h | 18862m | 5.4m/s | -56.3°C | 4.9% | 0hPa | 2.7V | 00:00:00 | 01:28:17 | 00:00:00 | |
| IW2NTF | 2026-08-31 00:02:20 | 44.60740 | 12.22685 | 33° | 11km/h | 18944m | 5.8m/s | -56.5°C | 4.9% | 0hPa | 2.7V | 08:30:00 | 01:28:32 | 00:00:00 | |
| DO3MHA-11 | 2026-08-31 00:02:14 | 44.60727 | 12.22583 | 88° | 20km/h | 18810m | 4.7m/s | -56.3°C | 4.8% | 0hPa | 2.6V | 00:00:00 | 01:28:07 | 00:00:00 | |
| IW2NTF | 2026-08-31 00:02:11 | 44.60727 | 12.22653 | 71° | 13km/h | 18889m | 4.9m/s | -56.2°C | 4.8% | 0hPa | 2.6V | 08:30:00 | 01:28:22 | 00:00:00 | |
| DO3MHA-11 | 2026-08-31 00:02:01 | 44.60723 | 12.22513 | 76° | 24km/h | 18757m | 4.1m/s | -56.7°C | 4.8% | 0hPa | 2.6V | 00:00:00 | 01:27:57 | 08:30:00 | |
| IW2NTF | 2026-08-31 00:02:00 | 44.60727 | 12.22608 | 88° | 9km/h | 18836m | 5.4m/s | -56.4°C | 4.8% | 0hPa | 2.7V | 08:30:00 | 01:28:12 | 00:00:00 | |
| IW2NTF | 2026-08-31 00:01:51 | 44.60728 | 12.22550 | 81° | 20km/h | 18783m | 4.4m/s | -56.5°C | 4.8% | 0hPa | 2.7V | 08:30:00 | 01:28:02 | 00:00:00 | |
| DO3MHA-11 | 2026-08-31 00:01:44 | 44.60717 | 12.22429 | 70° | 35km/h | 18705m | 5.1m/s | -57.0°C | 5.1% | 0hPa | 2.6V | 00:00:00 | 01:27:47 | 00:00:00 | |
| IW2NTF | 2026-08-31 00:01:40 | 44.60722 | 12.22479 | 85° | 22km/h | 18731m | 3.9m/s | -57.1°C | 5.1% | 0hPa | 2.6V | 08:30:00 | 01:27:52 | 00:00:00 | |
| IW2NTF | 2026-08-31 00:01:30 | 44.60698 | 12.22371 | 58° | 35km/h | 18680m | 5.3m/s | -56.8°C | 5.1% | 0hPa | 2.6V | 08:30:00 | 01:27:42 | 00:00:00 | |
| DO3MHA-11 | 2026-08-31 00:01:29 | 44.60680 | 12.22321 | 66° | 27km/h | 18655m | 4.7m/s | -56.6°C | 5.0% | 0hPa | 2.6V | 00:00:00 | 01:27:37 | 00:00:00 | |
| IW2NTF | 2026-08-31 00:01:20 | 44.60667 | 12.22274 | 64° | 27km/h | 18628m | 4.9m/s | -56.5°C | 5% | 0hPa | 2.6V | 08:30:00 | 01:27:32 | 00:00:00 | |
| DO3MHA-11 | 2026-08-31 00:01:17 | 44.60650 | 12.22231 | 52° | 26km/h | 18604m | 4.6m/s | -56.3°C | 4.9% | 0hPa | 2.6V | 00:00:00 | 01:27:27 | 00:00:00 | |
| IW2NTF | 2026-08-31 00:01:10 | 44.60633 | 12.22192 | 66° | 24km/h | 18579m | 5.5m/s | -56.2°C | 4.9% | 0hPa | 2.6V | 08:30:00 | 01:27:22 | 00:00:00 | |
| DO3MHA-11 | 2026-08-31 00:01:05 | 44.60619 | 12.22151 | 59° | 24km/h | 18554m | 5.5m/s | -56.1°C | 4.8% | 0hPa | 2.7V | 00:00:00 | 01:27:17 | 00:00:00 | |
| IW2NTF | 2026-08-31 00:01:00 | 44.60600 | 12.22116 | 50° | 24km/h | 18529m | 5.5m/s | -56°C | 4.8% | 0hPa | 2.7V | 08:30:00 | 01:27:12 | 00:00:00 | |
| DO3MHA-11 | 2026-08-31 00:00:51 | 44.60586 | 12.22084 | 62° | 26km/h | 18503m | 5.9m/s | -56.1°C | 4.8% | 0hPa | 2.7V | 00:00:00 | 01:27:07 | 00:00:00 | |
| IW2NTF | 2026-08-31 00:00:49 | 44.60566 | 12.22053 | 37° | 27km/h | 18478m | 5.4m/s | -56.2°C | 4.8% | 0hPa | 2.7V | 08:30:00 | 01:27:02 | 00:00:00 | |
| DO3MHA-11 | 2026-08-31 00:00:43 | 44.60539 | 12.22027 | 41° | 20km/h | 18452m | 5.6m/s | -56.2°C | 4.8% | 0hPa | 2.6V | 00:00:00 | 01:26:57 | 00:00:00 | |
| IW2NTF | 2026-08-31 00:00:39 | 44.60522 | 12.22000 | 52° | 20km/h | 18427m | 3.9m/s | -56.4°C | 4.9% | 0hPa | 2.6V | 08:30:00 | 01:26:52 | 00:00:00 | |
| DO3MHA-11 | 2026-08-31 00:00:32 | 44.60499 | 12.21986 | 10° | 15km/h | 18400m | 4.5m/s | -56.3°C | 5.0% | 0hPa | 2.7V | 00:00:00 | 01:26:47 | 00:00:00 | |
| IW2NTF | 2026-08-31 00:00:29 | 44.60477 | 12.21985 | 13° | 9km/h | 18372m | 4.8m/s | -56.2°C | 4.9% | 0hPa | 2.7V | 08:30:00 | 01:26:42 | 00:00:00 | |
| DO3MHA-11 | 2026-08-31 00:00:22 | 44.60464 | 12.21979 | 23° | 20km/h | 18345m | 4.5m/s | -55.9°C | 4.7% | 0hPa | 2.7V | 00:00:00 | 01:26:37 | 00:00:00 | |
| IW2NTF | 2026-08-31 00:00:20 | 44.60440 | 12.21976 | 8° | 20km/h | 18317m | 5.8m/s | -56°C | 4.6% | 0hPa | 2.7V | 08:30:00 | 01:26:32 | 00:00:00 | |
| DO3MHA-11 | 2026-08-31 00:00:10 | 44.60421 | 12.21962 | 43° | 16km/h | 18283m | 6.3m/s | -56.3°C | 4.6% | 0hPa | 2.7V | 00:00:00 | 01:26:26 | 08:30:00 | |
| IW2NTF | 2026-08-31 00:00:09 | 44.60408 | 12.21945 | 41° | 18km/h | 18261m | 3.7m/s | -56.7°C | 4.7% | 0hPa | 2.6V | 08:30:00 | 01:26:22 | 00:00:00 | |
| IW2NTF | 2026-08-30 23:59:59 | 44.60391 | 12.21894 | 60° | 20km/h | 18210m | 5.7m/s | -57.6°C | 5% | 0hPa | 2.6V | 08:30:00 | 01:26:12 | 00:00:00 | |
| DO3MHA-11 | 2026-08-30 23:59:58 | 44.60396 | 12.21914 | 73° | 20km/h | 18230m | 4.4m/s | -57.4°C | 5.0% | 0hPa | 2.6V | 00:00:00 | 01:26:16 | 00:00:00 | |
| IW2NTF | 2026-08-30 23:59:49 | 44.60363 | 12.21816 | 77° | 24km/h | 18158m | 4.9m/s | -58.3°C | 5.5% | 0hPa | 2.6V | 08:30:00 | 01:26:02 | 00:00:00 | |
| IW2NTF | 2026-08-30 23:59:39 | 44.60336 | 12.21721 | 59° | 33km/h | 18108m | 5.9m/s | -58.2°C | 5.4% | 0hPa | 2.6V | 08:30:00 | 01:25:52 | 00:00:00 | |
| IW2NTF | 2026-08-30 23:59:30 | 44.60304 | 12.21630 | 64° | 22km/h | 18058m | 6m/s | -58.2°C | 5.4% | 0hPa | 2.7V | 08:30:00 | 01:25:42 | 00:00:00 | |
| IW2NTF | 2026-08-30 23:59:19 | 44.60279 | 12.21563 | 61° | 16km/h | 18006m | 5.9m/s | -57.9°C | 5.2% | 0hPa | 2.7V | 08:30:00 | 01:25:32 | 00:00:00 | |
| IW2NTF | 2026-08-30 23:59:09 | 44.60266 | 12.21508 | 78° | 20km/h | 17954m | 5.5m/s | -57.9°C | 5.1% | 0hPa | 2.6V | 08:30:00 | 01:25:22 | 00:00:00 | |
| IW2NTF | 2026-08-30 23:58:59 | 44.60262 | 12.21457 | 104° | 18km/h | 17904m | 5m/s | -58.9°C | 5.6% | 0hPa | 2.6V | 08:30:00 | 01:25:12 | 00:00:00 | |
| IW2NTF | 2026-08-30 23:58:49 | 44.60286 | 12.21377 | 118° | 27km/h | 17853m | 5.5m/s | -58.9°C | 5.5% | 0hPa | 2.7V | 08:30:00 | 01:25:02 | 00:00:00 | |
| IW2NTF | 2026-08-30 23:58:39 | 44.60307 | 12.21293 | 92° | 20km/h | 17802m | 4.6m/s | -59°C | 5.6% | 0hPa | 2.7V | 08:30:00 | 01:24:52 | 00:00:00 | |
| IW2NTF | 2026-08-30 23:58:29 | 44.60314 | 12.21207 | 82° | 26km/h | 17753m | 6m/s | -58.9°C | 5.6% | 0hPa | 2.6V | 08:30:00 | 01:24:42 | 00:00:00 | |
| IW2NTF | 2026-08-30 23:58:19 | 44.60307 | 12.21111 | 87° | 26km/h | 17701m | 5.3m/s | -58.8°C | 5.6% | 0hPa | 2.6V | 08:30:00 | 01:24:32 | 00:00:00 | |
| IW2NTF | 2026-08-30 23:58:09 | 44.60293 | 12.21029 | 67° | 27km/h | 17649m | 5.2m/s | -58.9°C | 5.6% | 0hPa | 2.7V | 08:30:00 | 01:24:22 | 00:00:00 | |
| IW2NTF | 2026-08-30 23:57:59 | 44.60260 | 12.20940 | 62° | 29km/h | 17599m | 4.8m/s | -58.8°C | 5.4% | 0hPa | 2.6V | 08:30:00 | 01:24:12 | 00:00:00 | |
| IW2NTF | 2026-08-30 23:57:49 | 44.60237 | 12.20842 | 74° | 27km/h | 17547m | 4m/s | -59.4°C | 5.8% | 0hPa | 2.6V | 08:30:00 | 01:24:02 | 00:00:00 | |
| IW2NTF | 2026-08-30 23:57:40 | 44.60228 | 12.20751 | 84° | 33km/h | 17496m | 3.7m/s | -59.5°C | 5.8% | 0hPa | 2.7V | 08:30:00 | 01:23:52 | 00:00:00 | |
| IW2NTF | 2026-08-30 23:57:29 | 44.60217 | 12.20646 | 70° | 33km/h | 17448m | 4.5m/s | -59.2°C | 5.8% | 0hPa | 2.7V | 08:30:00 | 01:23:42 | 00:00:00 | |
| IW2NTF | 2026-08-30 23:57:19 | 44.60196 | 12.20544 | 73° | 31km/h | 17400m | 4.7m/s | -59.1°C | 5.8% | 0hPa | 2.7V | 08:30:00 | 01:23:32 | 00:00:00 | |
| IW2NTF | 2026-08-30 23:57:09 | 44.60170 | 12.20437 | 58° | 29km/h | 17348m | 4.9m/s | -59°C | 5.8% | 0hPa | 2.6V | 08:30:00 | 01:23:22 | 00:00:00 | |
| IW2NTF | 2026-08-30 23:56:59 | 44.60127 | 12.20343 | 56° | 38km/h | 17299m | 5.2m/s | -58.7°C | 5.6% | 0hPa | 2.6V | 08:30:00 | 01:23:12 | 00:00:00 | |
| DO3MHA-11 | 2026-08-30 23:56:57 | 44.60140 | 12.20376 | 59° | 35km/h | 17315m | 5.7m/s | -58.8°C | 5.6% | 0hPa | 2.6V | 00:00:00 | 01:23:15 | 00:00:00 | |
| IW2NTF | 2026-08-30 23:56:50 | 44.60077 | 12.20252 | 52° | 29km/h | 17248m | 4.6m/s | -58.9°C | 5.6% | 0hPa | 2.6V | 08:30:00 | 01:23:02 | 00:00:00 | |
| DO3MHA-11 | 2026-08-30 23:56:46 | 44.60086 | 12.20268 | 53° | 27km/h | 17259m | 4.6m/s | -58.9°C | 5.6% | 0hPa | 2.7V | 00:00:00 | 01:23:04 | 00:00:00 | |
| IW2NTF | 2026-08-30 23:56:39 | 44.60037 | 12.20176 | 44° | 24km/h | 17197m | 4.7m/s | -59.2°C | 5.7% | 0hPa | 2.7V | 08:30:00 | 01:22:52 | 00:00:00 | |
| DO3MHA-11 | 2026-08-30 23:56:36 | 44.60045 | 12.20188 | 53° | 26km/h | 17208m | 4.1m/s | -59.2°C | 5.7% | 0hPa | 2.7V | 00:00:00 | 01:22:54 | 00:00:00 | |
| IW2NTF | 2026-08-30 23:56:29 | 44.60003 | 12.20092 | 65° | 31km/h | 17146m | 4.6m/s | -59.6°C | 5.8% | 0hPa | 2.7V | 08:30:00 | 01:22:42 | 00:00:00 | |
| DO3MHA-11 | 2026-08-30 23:56:26 | 44.60009 | 12.20112 | 72° | 35km/h | 17157m | 4.8m/s | -59.4°C | 5.7% | 0hPa | 2.7V | 00:00:00 | 01:22:44 | 00:00:00 | |
| IW2NTF | 2026-08-30 23:56:19 | 44.59986 | 12.19964 | 82° | 40km/h | 17095m | 3.7m/s | -60.1°C | 6% | 0hPa | 2.7V | 08:30:00 | 01:22:32 | 00:00:00 | |
| DO3MHA-11 | 2026-08-30 23:56:16 | 44.59988 | 12.19993 | 83° | 42km/h | 17104m | 5.6m/s | -59.9°C | 6.0% | 0hPa | 2.6V | 00:00:00 | 01:22:34 | 00:00:00 | |
| IW2NTF | 2026-08-30 23:56:09 | 44.59961 | 12.19814 | 80° | 55km/h | 17047m | 4.8m/s | -60.2°C | 6.2% | 0hPa | 2.6V | 08:30:00 | 01:22:22 | 00:00:00 | |
| DO3MHA-11 | 2026-08-30 23:56:06 | 44.59966 | 12.19851 | 78° | 53km/h | 17058m | 4.3m/s | -60.1°C | 6.1% | 0hPa | 2.6V | 00:00:00 | 01:22:24 | 00:00:00 | |
| IW2NTF | 2026-08-30 23:55:58 | 44.59933 | 12.19634 | 76° | 53km/h | 17002m | 5.4m/s | -59.8°C | 6% | 0hPa | 2.6V | 08:30:00 | 01:22:12 | 00:00:00 | |
| DO3MHA-11 | 2026-08-30 23:55:56 | 44.59939 | 12.19670 | 75° | 49km/h | 17011m | 3.7m/s | -59.9°C | 6.1% | 0hPa | 2.6V | 00:00:00 | 01:22:14 | 00:00:00 | |
| IW2NTF | 2026-08-30 23:55:48 | 44.59899 | 12.19471 | 76° | 46km/h | 16955m | 5.8m/s | -59.5°C | 5.9% | 0hPa | 2.6V | 08:30:00 | 01:22:02 | 00:00:00 | |
| DO3MHA-11 | 2026-08-30 23:55:46 | 44.59905 | 12.19502 | 73° | 44km/h | 16964m | 5.0m/s | -59.5°C | 6.0% | 0hPa | 2.7V | 00:00:00 | 01:22:04 | 08:30:00 | |
| IW2NTF | 2026-08-30 23:55:38 | 44.59868 | 12.19331 | 66° | 46km/h | 16907m | 5.1m/s | -59.3°C | 6% | 0hPa | 2.6V | 08:30:00 | 01:21:52 | 00:00:00 | |
| DO3MHA-11 | 2026-08-30 23:55:36 | 44.59878 | 12.19360 | 65° | 42km/h | 16916m | 3.4m/s | -59.3°C | 6.1% | 0hPa | 2.6V | 00:00:00 | 01:21:54 | 00:00:00 | |
| IW2NTF | 2026-08-30 23:55:28 | 44.59836 | 12.19203 | 70° | 33km/h | 16860m | 5.5m/s | -59°C | 5.9% | 0hPa | 2.6V | 08:30:00 | 01:21:42 | 00:00:00 | |
| DO3MHA-11 | 2026-08-30 23:55:26 | 44.59841 | 12.19224 | 72° | 37km/h | 16870m | 4.9m/s | -59.0°C | 5.9% | 0hPa | 2.7V | 00:00:00 | 01:21:44 | 00:00:00 | |
| IW2NTF | 2026-08-30 23:55:18 | 44.59801 | 12.19082 | 74° | 33km/h | 16814m | 4.7m/s | -58.9°C | 5.8% | 0hPa | 2.7V | 08:30:00 | 01:21:32 | 00:00:00 | |
| DO3MHA-11 | 2026-08-30 23:55:16 | 44.59806 | 12.19105 | 71° | 29km/h | 16824m | 4.9m/s | -58.8°C | 5.8% | 0hPa | 2.6V | 00:00:00 | 01:21:34 | 00:00:00 | |
| IW2NTF | 2026-08-30 23:55:07 | 44.59779 | 12.18991 | 62° | 27km/h | 16766m | 3.4m/s | -59.2°C | 6% | 0hPa | 2.6V | 08:30:00 | 01:21:22 | 00:00:00 | |
| DO3MHA-11 | 2026-08-30 23:55:06 | 44.59786 | 12.19008 | 64° | 27km/h | 16776m | 5.2m/s | -59.1°C | 6.0% | 0hPa | 2.6V | 00:00:00 | 01:21:24 | 00:00:00 | |
| IW2NTF | 2026-08-30 23:54:57 | 44.59771 | 12.18899 | 86° | 26km/h | 16719m | 4m/s | -59.2°C | 6% | 0hPa | 2.6V | 08:30:00 | 01:21:12 | 00:00:00 | |
| DO3MHA-11 | 2026-08-30 23:54:56 | 44.59770 | 12.18917 | 94° | 29km/h | 16729m | 4.5m/s | -59.2°C | 6.1% | 0hPa | 2.6V | 00:00:00 | 01:21:14 | 00:00:00 | |
| IW2NTF | 2026-08-30 23:54:47 | 44.59761 | 12.18784 | 85° | 35km/h | 16672m | 5m/s | -59.2°C | 6.1% | 0hPa | 2.6V | 08:30:00 | 01:21:02 | 00:00:00 | |
| DO3MHA-11 | 2026-08-30 23:54:46 | 44.59762 | 12.18809 | 86° | 38km/h | 16682m | 4.8m/s | -59.1°C | 6.1% | 0hPa | 2.6V | 00:00:00 | 01:21:04 | 00:00:00 | |
| IW2NTF | 2026-08-30 23:54:37 | 44.59751 | 12.18641 | 82° | 40km/h | 16625m | 4.5m/s | -59.2°C | 6.1% | 0hPa | 2.6V | 08:30:00 | 01:20:52 | 00:00:00 | |
| DO3MHA-11 | 2026-08-30 23:54:36 | 44.59753 | 12.18671 | 85° | 42km/h | 16634m | 3.1m/s | -59.0°C | 6.1% | 0hPa | 2.6V | 00:00:00 | 01:20:54 | 00:00:00 | |
| IW2NTF | 2026-08-30 23:54:27 | 44.59724 | 12.18491 | 74° | 49km/h | 16579m | 4.2m/s | -59.3°C | 6.2% | 0hPa | 2.6V | 08:30:00 | 01:20:42 | 00:00:00 | |
| DO3MHA-11 | 2026-08-30 23:54:26 | 44.59730 | 12.18525 | 75° | 47km/h | 16589m | 4.3m/s | -59.3°C | 6.2% | 0hPa | 2.6V | 00:00:00 | 01:20:44 | 00:00:00 | |
| IW2NTF | 2026-08-30 23:54:17 | 44.59696 | 12.18334 | 83° | 42km/h | 16532m | 3.7m/s | -59.9°C | 6.6% | 0hPa | 2.6V | 08:30:00 | 01:20:32 | 00:00:00 | |
| DO3MHA-11 | 2026-08-30 23:54:16 | 44.59700 | 12.18363 | 79° | 46km/h | 16542m | 4.0m/s | -59.8°C | 6.6% | 0hPa | 2.6V | 00:00:00 | 01:20:34 | 08:30:00 | |
| IW2NTF | 2026-08-30 23:54:07 | 44.59679 | 12.18173 | 79° | 47km/h | 16484m | 4.6m/s | -60.1°C | 6.7% | 0hPa | 2.6V | 08:30:00 | 01:20:22 | 00:00:00 | |
| IW2NTF | 2026-08-30 23:53:59 | 44.59649 | 12.18000 | 72° | 51km/h | 16437m | 4.4m/s | -60.1°C | 6.9% | 0hPa | 2.6V | 08:30:00 | 01:20:12 | 00:00:00 | |
| DO3MHA-11 | 2026-08-30 23:53:56 | 44.59656 | 12.18035 | 73° | 51km/h | 16447m | 4.2m/s | -60.1°C | 6.9% | 0hPa | 2.6V | 00:00:00 | 01:20:14 | 00:00:00 | |
| IW2NTF | 2026-08-30 23:53:49 | 44.59606 | 12.17830 | 68° | 53km/h | 16390m | 4m/s | -60°C | 6.8% | 0hPa | 2.6V | 08:30:00 | 01:20:02 | 00:00:00 | |
| DO3MHA-11 | 2026-08-30 23:53:46 | 44.59615 | 12.17865 | 71° | 55km/h | 16399m | 4.4m/s | -60.0°C | 6.7% | 0hPa | 2.6V | 00:00:00 | 01:20:04 | 00:00:00 | |
| IW2NTF | 2026-08-30 23:53:39 | 44.59534 | 12.17655 | 59° | 62km/h | 16342m | 3.6m/s | -60°C | 7.1% | 0hPa | 2.6V | 08:30:00 | 01:19:52 | 00:00:00 | |
| DO3MHA-11 | 2026-08-30 23:53:36 | 44.59551 | 12.17692 | 56° | 57km/h | 16351m | 4.2m/s | -59.9°C | 7.0% | 0hPa | 2.7V | 00:00:00 | 01:19:54 | 00:00:00 | |
| IW2NTF | 2026-08-30 23:53:27 | 44.59455 | 12.17458 | 54° | 53km/h | 16284m | 6.1m/s | -59.7°C | 6.9% | 0hPa | 2.7V | 08:30:00 | 01:19:40 | 00:00:00 | |
| DO3MHA-11 | 2026-08-30 23:53:26 | 44.59483 | 12.17520 | 60° | 53km/h | 16303m | 4.4m/s | 0°C | 0% | 0hPa | 2.7V | 00:00:00 | 01:19:44 | 00:00:00 | |
| IW2NTF | 2026-08-30 23:53:17 | 44.59391 | 12.17305 | 64° | 46km/h | 16234m | 5m/s | -59.5°C | 6.9% | 0hPa | 2.7V | 08:30:00 | 01:19:30 | 00:00:00 | |
| DO3MHA-11 | 2026-08-30 23:53:16 | 44.59412 | 12.17366 | 62° | 46km/h | 16255m | 3.9m/s | 0°C | 0% | 0hPa | 2.7V | 00:00:00 | 01:19:34 | 00:00:00 | |
| IW2NTF | 2026-08-30 23:53:07 | 44.59334 | 12.17168 | 63° | 42km/h | 16185m | 4.8m/s | -59.4°C | 6.7% | 0hPa | 2.7V | 08:30:00 | 01:19:20 | 00:00:00 | |
| DO3MHA-11 | 2026-08-30 23:53:06 | 44.59356 | 12.17222 | 58° | 44km/h | 16204m | 5.0m/s | 0°C | 0% | 0hPa | 2.7V | 00:00:00 | 01:19:24 | 00:00:00 | |
| IW2NTF | 2026-08-30 23:52:57 | 44.59286 | 12.17039 | 62° | 33km/h | 16135m | 4.3m/s | -60.1°C | 7.3% | 0hPa | 2.7V | 08:30:00 | 01:19:10 | 00:00:00 | |
| DO3MHA-11 | 2026-08-30 23:52:56 | 44.59303 | 12.17085 | 61° | 37km/h | 16154m | 5.7m/s | 0°C | 0% | 0hPa | 2.7V | 00:00:00 | 01:19:14 | 00:00:00 | |
| IW2NTF | 2026-08-30 23:52:47 | 44.59256 | 12.16901 | 68° | 40km/h | 16085m | 4.1m/s | -60.7°C | 7.7% | 0hPa | 2.7V | 08:30:00 | 01:19:00 | 00:00:00 | |
| DO3MHA-11 | 2026-08-30 23:52:46 | 44.59268 | 12.16963 | 78° | 46km/h | 16105m | 5.6m/s | 0°C | 0% | 0hPa | 2.7V | 00:00:00 | 01:19:04 | 08:30:00 | |
| IW2NTF | 2026-08-30 23:52:37 | 44.59224 | 12.16785 | 77° | 38km/h | 16036m | 4.1m/s | -60.6°C | 7.8% | 0hPa | 2.7V | 08:30:00 | 01:18:50 | 00:00:00 | |
| IW2NTF | 2026-08-30 23:52:28 | 44.59193 | 12.16663 | 86° | 33km/h | 15986m | 4.7m/s | -60.5°C | 8% | 0hPa | 2.7V | 08:30:00 | 01:18:40 | 00:00:00 | |
| IW2NTF | 2026-08-30 23:52:17 | 44.59185 | 12.16523 | 80° | 42km/h | 15934m | 4.8m/s | -60.3°C | 8.1% | 0hPa | 2.7V | 08:30:00 | 01:18:30 | 00:00:00 | |
| IW2NTF | 2026-08-30 23:52:07 | 44.59185 | 12.16373 | 87° | 44km/h | 15882m | 5.8m/s | -60.1°C | 8% | 0hPa | 2.7V | 08:30:00 | 01:18:20 | 00:00:00 | |
| IW2NTF | 2026-08-30 23:51:57 | 44.59190 | 12.16191 | 101° | 58km/h | 15826m | 4.5m/s | -60.2°C | 8.5% | 0hPa | 2.7V | 08:30:00 | 01:18:10 | 00:00:00 | |
| IW2NTF | 2026-08-30 23:51:47 | 44.59197 | 12.15985 | 93° | 68km/h | 15774m | 6.6m/s | -60.5°C | 8.9% | 0hPa | 2.7V | 08:30:00 | 01:18:00 | 00:00:00 | |
| IW2NTF | 2026-08-30 23:51:37 | 44.59212 | 12.15744 | 89° | 68km/h | 15726m | 4.3m/s | -60.4°C | 9.2% | 0hPa | 2.6V | 08:30:00 | 01:17:50 | 00:00:00 | |
| IW2NTF | 2026-08-30 23:51:27 | 44.59211 | 12.15502 | 93° | 64km/h | 15679m | 5.4m/s | -60.8°C | 10.1% | 0hPa | 2.6V | 08:30:00 | 01:17:40 | 00:00:00 | |
| IW2NTF | 2026-08-30 23:51:17 | 44.59208 | 12.15293 | 84° | 62km/h | 15632m | 4m/s | -61.7°C | 10.7% | 0hPa | 2.6V | 08:30:00 | 01:17:30 | 00:00:00 | |
| IW2NTF | 2026-08-30 23:51:07 | 44.59214 | 12.15073 | 94° | 62km/h | 15587m | 5m/s | -61.9°C | 10.7% | 0hPa | 2.6V | 08:30:00 | 01:17:20 | 00:00:00 | |
| IW2NTF | 2026-08-30 23:50:57 | 44.59221 | 12.14856 | 92° | 64km/h | 15545m | 5.5m/s | -63°C | 11.1% | 0hPa | 2.7V | 08:30:00 | 01:17:10 | 00:00:00 | |
| IW2NTF | 2026-08-30 23:50:47 | 44.59218 | 12.14623 | 79° | 69km/h | 15501m | 4.2m/s | -63.6°C | 11.8% | 0hPa | 2.7V | 08:30:00 | 01:17:00 | 00:00:00 | |
| IW2NTF | 2026-08-30 23:50:37 | 44.59197 | 12.14387 | 82° | 66km/h | 15457m | 3.7m/s | -63.4°C | 11.6% | 0hPa | 2.6V | 08:30:00 | 01:16:50 | 00:00:00 | |
| IW2NTF | 2026-08-30 23:50:27 | 44.59161 | 12.14162 | 80° | 57km/h | 15413m | 4.8m/s | -63.1°C | 11.1% | 0hPa | 2.7V | 08:30:00 | 01:16:40 | 00:00:00 | |
| IW2NTF | 2026-08-30 23:50:18 | 44.59121 | 12.13950 | 70° | 64km/h | 15368m | 3.7m/s | -62.8°C | 10.7% | 0hPa | 2.7V | 08:30:00 | 01:16:30 | 00:00:00 | |
| IW2NTF | 2026-08-30 23:50:07 | 44.59077 | 12.13748 | 75° | 57km/h | 15324m | 3.4m/s | -62.5°C | 10.6% | 0hPa | 2.6V | 08:30:00 | 01:16:20 | 00:00:00 | |
| IW2NTF | 2026-08-30 23:49:57 | 44.59041 | 12.13548 | 76° | 51km/h | 15278m | 4.1m/s | -62.3°C | 10.5% | 0hPa | 2.6V | 08:30:00 | 01:16:10 | 00:00:00 | |
| IW2NTF | 2026-08-30 23:49:47 | 44.59012 | 12.13361 | 73° | 53km/h | 15234m | 4.2m/s | -62.5°C | 10.8% | 0hPa | 2.6V | 08:30:00 | 01:16:00 | 00:00:00 | |
| IW2NTF | 2026-08-30 23:49:37 | 44.58993 | 12.13180 | 81° | 55km/h | 15190m | 3.1m/s | -62.3°C | 10.9% | 0hPa | 2.6V | 08:30:00 | 01:15:50 | 00:00:00 | |
| IW2NTF | 2026-08-30 23:49:28 | 44.58961 | 12.12987 | 78° | 57km/h | 15146m | 4.2m/s | -62.2°C | 10.9% | 0hPa | 2.8V | 08:30:00 | 01:15:40 | 00:00:00 | |
| IW2NTF | 2026-08-30 23:49:17 | 44.58928 | 12.12792 | 77° | 58km/h | 15099m | 5.2m/s | -62.2°C | 11.3% | 0hPa | 2.6V | 08:30:00 | 01:15:30 | 00:00:00 | |
| IW2NTF | 2026-08-30 23:49:07 | 44.58883 | 12.12578 | 72° | 68km/h | 15053m | 3.7m/s | -62.1°C | 11.5% | 0hPa | 2.6V | 08:30:00 | 01:15:20 | 00:00:00 | |
| IW2NTF | 2026-08-30 23:48:51 | 44.58824 | 12.12326 | 69° | 66km/h | 14999m | 3.5m/s | -62.3°C | 12.3% | 0hPa | 2.6V | 08:30:00 | 01:15:08 | 00:00:00 | |
| IW2NTF | 2026-08-30 23:48:41 | 44.58768 | 12.12119 | 66° | 53km/h | 14952m | 5.6m/s | -62°C | 12.6% | 0hPa | 2.8V | 08:30:00 | 01:14:58 | 00:00:00 | |
| IW2NTF | 2026-08-30 23:48:31 | 44.58715 | 12.11926 | 71° | 60km/h | 14904m | 4.2m/s | -62.2°C | 12.5% | 0hPa | 2.6V | 08:30:00 | 01:14:48 | 00:00:00 | |
| IW2NTF | 2026-08-30 23:48:21 | 44.58672 | 12.11742 | 79° | 60km/h | 14857m | 5.8m/s | -62.7°C | 13.8% | 0hPa | 2.6V | 08:30:00 | 01:14:38 | 00:00:00 | |
| IW2NTF | 2026-08-30 23:48:12 | 44.58647 | 12.11537 | 81° | 53km/h | 14808m | 4.1m/s | -63.2°C | 14.4% | 0hPa | 2.8V | 08:30:00 | 01:14:28 | 00:00:00 | |
| IW2NTF | 2026-08-30 23:48:01 | 44.58615 | 12.11333 | 75° | 60km/h | 14762m | 4.2m/s | -62.9°C | 14.6% | 0hPa | 2.6V | 08:30:00 | 01:14:18 | 00:00:00 | |
| IW2NTF | 2026-08-30 23:47:51 | 44.58574 | 12.11138 | 75° | 58km/h | 14714m | 4.5m/s | -62.9°C | 15.3% | 0hPa | 2.8V | 08:30:00 | 01:14:08 | 00:00:00 | |
| IW2NTF | 2026-08-30 23:47:41 | 44.58529 | 12.10951 | 70° | 51km/h | 14667m | 3.8m/s | -62.8°C | 15.6% | 0hPa | 2.8V | 08:30:00 | 01:13:58 | 00:00:00 | |
| IW2NTF | 2026-08-30 23:47:31 | 44.58497 | 12.10777 | 72° | 51km/h | 14617m | 4.8m/s | -62.6°C | 15.8% | 0hPa | 2.6V | 08:30:00 | 01:13:48 | 00:00:00 | |
| IW2NTF | 2026-08-30 23:47:21 | 44.58469 | 12.10620 | 84° | 47km/h | 14569m | 5.2m/s | -62.4°C | 16.4% | 0hPa | 2.8V | 08:30:00 | 01:13:38 | 00:00:00 | |
| IW2NTF | 2026-08-30 23:47:11 | 44.58466 | 12.10466 | 83° | 38km/h | 14519m | 4m/s | -62°C | 16.7% | 0hPa | 2.6V | 08:30:00 | 01:13:28 | 00:00:00 | |
| IW2NTF | 2026-08-30 23:47:02 | 44.58472 | 12.10303 | 87° | 47km/h | 14468m | 4.6m/s | -61.6°C | 17.4% | 0hPa | 2.6V | 08:30:00 | 01:13:18 | 00:00:00 | |
| IW2NTF | 2026-08-30 23:46:51 | 44.58479 | 12.10168 | 106° | 37km/h | 14416m | 5m/s | -61.1°C | 19.3% | 0hPa | 2.8V | 08:30:00 | 01:13:08 | 00:00:00 | |
| IW2NTF | 2026-08-30 23:46:41 | 44.58488 | 12.10002 | 102° | 44km/h | 14363m | 6.7m/s | -61°C | 19.6% | 0hPa | 2.6V | 08:30:00 | 01:12:58 | 00:00:00 | |
| IW2NTF | 2026-08-30 23:46:35 | 44.58521 | 12.09847 | 110° | 53km/h | 14305m | 4.2m/s | -60.9°C | 22.8% | 0hPa | 2.6V | 08:30:00 | 01:12:48 | 00:00:00 | |
| IW2NTF | 2026-08-30 23:46:25 | 44.58570 | 12.09668 | 109° | 53km/h | 14253m | 6.2m/s | -61.6°C | 25.8% | 0hPa | 2.8V | 08:30:00 | 01:12:38 | 00:00:00 | |
| IW2NTF | 2026-08-30 23:46:15 | 44.58616 | 12.09454 | 106° | 64km/h | 14199m | 4.4m/s | -61.9°C | 29.6% | 0hPa | 2.7V | 08:30:00 | 01:12:28 | 00:00:00 | |
| IW2NTF | 2026-08-30 23:46:05 | 44.58658 | 12.09240 | 100° | 62km/h | 14152m | 4.5m/s | -63.3°C | 34.4% | 0hPa | 2.7V | 08:30:00 | 01:12:18 | 00:00:00 | |
| IW2NTF | 2026-08-30 23:45:55 | 44.58694 | 12.09002 | 100° | 75km/h | 14104m | 5.4m/s | -64°C | 39% | 0hPa | 2.6V | 08:30:00 | 01:12:08 | 00:00:00 | |
| IW2NTF | 2026-08-30 23:45:43 | 44.58734 | 12.08700 | 104° | 71km/h | 14046m | 4.4m/s | -65°C | 42.5% | 0hPa | 2.8V | 08:30:00 | 01:11:56 | 00:00:00 | |
| IW2NTF | 2026-08-30 23:45:17 | 44.58873 | 12.08049 | 110° | 77km/h | 13924m | 3.9m/s | -65.7°C | 44.7% | 0hPa | 2.8V | 08:30:00 | 01:11:30 | 00:00:00 | |
| IW2NTF | 2026-08-30 23:45:07 | 44.58935 | 12.07796 | 108° | 78km/h | 13877m | 5.4m/s | -65.4°C | 43.3% | 0hPa | 2.8V | 08:30:00 | 01:11:20 | 00:00:00 | |
| IW2NTF | 2026-08-30 23:44:43 | 44.59117 | 12.07163 | 110° | 80km/h | 13768m | 4.5m/s | -64.5°C | 41.8% | 0hPa | 2.8V | 08:30:00 | 01:10:56 | 00:00:00 | |
| IW2NTF | 2026-08-30 23:43:10 | 44.59748 | 12.04444 | 106° | 86km/h | 13360m | 4.8m/s | -62.9°C | 45.5% | 0hPa | 2.8V | 08:30:00 | 01:09:23 | 00:00:00 | |
| IW2NTF | 2026-08-30 23:42:58 | 44.59822 | 12.04088 | 105° | 89km/h | 13306m | 3.6m/s | -62.6°C | 46.1% | 0hPa | 2.8V | 08:30:00 | 01:09:11 | 00:00:00 | |
| IW2NTF | 2026-08-30 23:42:45 | 44.59877 | 12.03801 | 101° | 88km/h | 13260m | 5.6m/s | -62.3°C | 46% | 0hPa | 2.8V | 08:30:00 | 01:09:01 | 00:00:00 | |
| IW2NTF | 2026-08-30 23:42:38 | 44.59929 | 12.03510 | 104° | 82km/h | 13215m | 4.8m/s | -62°C | 46.2% | 0hPa | 2.7V | 08:30:00 | 01:08:51 | 00:00:00 | |
| IW2NTF | 2026-08-30 23:42:25 | 44.59988 | 12.03194 | 105° | 82km/h | 13167m | 4.4m/s | -61.8°C | 47.2% | 0hPa | 2.7V | 08:30:00 | 01:08:40 | 00:00:00 | |
| IW2NTF | 2026-08-30 23:42:17 | 44.60047 | 12.02921 | 104° | 80km/h | 13120m | 4.5m/s | -61.5°C | 47.3% | 0hPa | 2.8V | 08:30:00 | 01:08:30 | 00:00:00 | |
| IW2NTF | 2026-08-30 23:42:05 | 44.60102 | 12.02654 | 106° | 73km/h | 13074m | 5.1m/s | -61.1°C | 47.9% | 0hPa | 2.7V | 08:30:00 | 01:08:20 | 00:00:00 | |
| IW2NTF | 2026-08-30 23:41:57 | 44.60154 | 12.02391 | 105° | 78km/h | 13028m | 6m/s | -60.8°C | 47.6% | 0hPa | 2.7V | 08:30:00 | 01:08:10 | 00:00:00 | |
| IW2NTF | 2026-08-30 23:41:43 | 44.60209 | 12.02122 | 106° | 82km/h | 12981m | 5.3m/s | -60.5°C | 47.8% | 0hPa | 2.8V | 08:30:00 | 01:08:00 | 00:00:00 | |
| IW2NTF | 2026-08-30 23:41:37 | 44.60275 | 12.01845 | 108° | 84km/h | 12934m | 5.5m/s | -60.2°C | 47.5% | 0hPa | 2.7V | 08:30:00 | 01:07:50 | 00:00:00 | |
| IW2NTF | 2026-08-30 23:41:23 | 44.60350 | 12.01560 | 110° | 86km/h | 12885m | 5.6m/s | -59.9°C | 48.7% | 0hPa | 2.8V | 08:30:00 | 01:07:40 | 00:00:00 | |
| IW2NTF | 2026-08-30 23:41:17 | 44.60427 | 12.01264 | 111° | 89km/h | 12839m | 5.3m/s | -59.8°C | 50.9% | 0hPa | 2.7V | 08:30:00 | 01:07:30 | 00:00:00 | |
| IW2NTF | 2026-08-30 23:41:03 | 44.60509 | 12.00970 | 111° | 88km/h | 12792m | 5.5m/s | -59.5°C | 51.8% | 0hPa | 2.8V | 08:30:00 | 01:07:20 | 00:00:00 | |
| IW2NTF | 2026-08-30 23:40:57 | 44.60593 | 12.00688 | 111° | 86km/h | 12746m | 3.7m/s | -59.2°C | 52.3% | 0hPa | 2.8V | 08:30:00 | 01:07:10 | 00:00:00 | |
| IW2NTF | 2026-08-30 23:40:43 | 44.60679 | 12.00392 | 111° | 86km/h | 12699m | 4.4m/s | -58.8°C | 52.6% | 0hPa | 2.8V | 08:30:00 | 01:07:00 | 00:00:00 | |
| IW2NTF | 2026-08-30 23:40:37 | 44.60760 | 12.00110 | 112° | 89km/h | 12653m | 4.5m/s | -58.5°C | 54.5% | 0hPa | 2.8V | 08:30:00 | 01:06:50 | 00:00:00 | |
| IW2NTF | 2026-08-30 23:40:27 | 44.60849 | 11.99825 | 112° | 89km/h | 12606m | 4.5m/s | -58.3°C | 56.7% | 0hPa | 2.8V | 08:30:00 | 01:06:40 | 00:00:00 | |
| IW2NTF | 2026-08-30 23:40:18 | 44.60940 | 11.99530 | 113° | 89km/h | 12558m | 5.2m/s | -58.1°C | 56.7% | 0hPa | 2.7V | 08:30:00 | 01:06:30 | 00:00:00 | |
| IW2NTF | 2026-08-30 23:40:07 | 44.61033 | 11.99234 | 114° | 91km/h | 12513m | 5.4m/s | -57.8°C | 55.9% | 0hPa | 2.7V | 08:30:00 | 01:06:20 | 00:00:00 | |
| IW2NTF | 2026-08-30 23:39:57 | 44.61129 | 11.98938 | 115° | 93km/h | 12468m | 5.4m/s | -57.5°C | 55.2% | 0hPa | 2.7V | 08:30:00 | 01:06:10 | 00:00:00 | |
| IW2NTF | 2026-08-30 23:39:47 | 44.61235 | 11.98642 | 116° | 93km/h | 12421m | 4.5m/s | -57°C | 53.5% | 0hPa | 2.8V | 08:30:00 | 01:06:00 | 00:00:00 | |
| IW2NTF | 2026-08-30 23:39:37 | 44.61341 | 11.98339 | 114° | 97km/h | 12372m | 4.7m/s | -56.6°C | 52.1% | 0hPa | 2.7V | 08:30:00 | 01:05:50 | 00:00:00 | |
| IW2NTF | 2026-08-30 23:39:27 | 44.61444 | 11.98036 | 116° | 93km/h | 12326m | 5.3m/s | -56.2°C | 51.5% | 0hPa | 2.7V | 08:30:00 | 01:05:40 | 00:00:00 | |
| IW2NTF | 2026-08-30 23:39:17 | 44.61551 | 11.97734 | 115° | 97km/h | 12279m | 3.4m/s | -55.8°C | 52.3% | 0hPa | 2.8V | 08:30:00 | 01:05:30 | 00:00:00 | |
| IW2NTF | 2026-08-30 23:39:07 | 44.61659 | 11.97434 | 116° | 95km/h | 12233m | 4.5m/s | -55.5°C | 52.1% | 0hPa | 2.7V | 08:30:00 | 01:05:20 | 00:00:00 | |
| IW2NTF | 2026-08-30 23:38:57 | 44.61761 | 11.97138 | 115° | 91km/h | 12185m | 5.7m/s | -55.1°C | 52.5% | 0hPa | 2.8V | 08:30:00 | 01:05:10 | 00:00:00 | |
| IW2NTF | 2026-08-30 23:38:47 | 44.61862 | 11.96840 | 113° | 88km/h | 12140m | 5m/s | -54.8°C | 51.8% | 0hPa | 2.7V | 08:30:00 | 01:05:00 | 00:00:00 | |
| IW2NTF | 2026-08-30 23:38:37 | 44.61951 | 11.96566 | 116° | 88km/h | 12095m | 4.4m/s | -54.6°C | 53.4% | 0hPa | 2.8V | 08:30:00 | 01:04:50 | 00:00:00 | |
| IW2NTF | 2026-08-30 23:38:27 | 44.62040 | 11.96289 | 112° | 82km/h | 12050m | 3.5m/s | -54.4°C | 58% | 0hPa | 2.7V | 08:30:00 | 01:04:40 | 00:00:00 | |
| IW2NTF | 2026-08-30 23:38:17 | 44.62121 | 11.96017 | 112° | 78km/h | 12003m | 4.5m/s | -54.2°C | 58.9% | 0hPa | 2.8V | 08:30:00 | 01:04:30 | 00:00:00 | |
| IW2NTF | 2026-08-30 23:38:07 | 44.62207 | 11.95747 | 112° | 84km/h | 11959m | 4.1m/s | -53.8°C | 57.1% | 0hPa | 2.7V | 08:30:00 | 01:04:20 | 00:00:00 | |
| IW2NTF | 2026-08-30 23:37:57 | 44.62286 | 11.95481 | 112° | 82km/h | 11913m | 4.2m/s | -53.5°C | 56.8% | 0hPa | 2.8V | 08:30:00 | 01:04:10 | 00:00:00 | |
| IW2NTF | 2026-08-30 23:37:47 | 44.62355 | 11.95214 | 111° | 82km/h | 11868m | 4.4m/s | -53.1°C | 56.2% | 0hPa | 2.8V | 08:30:00 | 01:04:00 | 00:00:00 | |
| IW2NTF | 2026-08-30 23:37:37 | 44.62434 | 11.94946 | 112° | 78km/h | 11824m | 5.4m/s | -52.7°C | 53.8% | 0hPa | 2.7V | 08:30:00 | 01:03:50 | 00:00:00 | |
| IW2NTF | 2026-08-30 23:37:27 | 44.62509 | 11.94667 | 109° | 86km/h | 11781m | 4.8m/s | -52.4°C | 52.3% | 0hPa | 2.7V | 08:30:00 | 01:03:40 | 00:00:00 | |
| IW2NTF | 2026-08-30 23:37:17 | 44.62598 | 11.94395 | 112° | 88km/h | 11736m | 3.8m/s | -52°C | 52.2% | 0hPa | 2.7V | 08:30:00 | 01:03:30 | 00:00:00 | |
| IW2NTF | 2026-08-30 23:37:07 | 44.62678 | 11.94106 | 113° | 86km/h | 11691m | 4.8m/s | -51.6°C | 51.1% | 0hPa | 2.7V | 08:30:00 | 01:03:20 | 00:00:00 | |
| IW2NTF | 2026-08-30 23:36:57 | 44.62761 | 11.93822 | 112° | 84km/h | 11648m | 3.9m/s | -51.3°C | 51.6% | 0hPa | 2.7V | 08:30:00 | 01:03:10 | 00:00:00 | |
| IW2NTF | 2026-08-30 23:36:47 | 44.62840 | 11.93537 | 110° | 86km/h | 11605m | 4.3m/s | -50.9°C | 51.5% | 0hPa | 2.8V | 08:30:00 | 01:03:00 | 00:00:00 | |
| IW2NTF | 2026-08-30 23:36:37 | 44.62918 | 11.93258 | 108° | 84km/h | 11562m | 4.1m/s | -50.7°C | 50.7% | 0hPa | 2.8V | 08:30:00 | 01:02:50 | 00:00:00 | |
| IW2NTF | 2026-08-30 23:36:27 | 44.62994 | 11.92977 | 113° | 82km/h | 11518m | 3.7m/s | -50.4°C | 50.1% | 0hPa | 2.8V | 08:30:00 | 01:02:40 | 00:00:00 | |
| IW2NTF | 2026-08-30 23:36:15 | 44.63065 | 11.92694 | 109° | 84km/h | 11478m | 3.8m/s | -50°C | 48.2% | 0hPa | 2.7V | 08:30:00 | 01:02:30 | 00:00:00 | |
| IW2NTF | 2026-08-30 23:36:06 | 44.63147 | 11.92415 | 112° | 84km/h | 11434m | 5m/s | -49.6°C | 44.9% | 0hPa | 2.8V | 08:30:00 | 01:02:20 | 00:00:00 | |
| IW2NTF | 2026-08-30 23:35:57 | 44.63226 | 11.92136 | 113° | 84km/h | 11391m | 4.8m/s | -49.2°C | 42.2% | 0hPa | 2.8V | 08:30:00 | 01:02:10 | 00:00:00 | |
| IW2NTF | 2026-08-30 23:35:45 | 44.63308 | 11.91863 | 111° | 84km/h | 11350m | 4.2m/s | -48.9°C | 39.4% | 0hPa | 2.7V | 08:30:00 | 01:02:00 | 00:00:00 | |
| IW2NTF | 2026-08-30 23:35:35 | 44.63390 | 11.91601 | 114° | 82km/h | 11307m | 4.4m/s | -48.5°C | 36.4% | 0hPa | 2.7V | 08:30:00 | 01:01:50 | 00:00:00 | |
| IW2NTF | 2026-08-30 23:35:25 | 44.63478 | 11.91331 | 115° | 84km/h | 11267m | 4.5m/s | -48.1°C | 33.7% | 0hPa | 2.7V | 08:30:00 | 01:01:40 | 00:00:00 | |
| IW2NTF | 2026-08-30 23:35:15 | 44.63566 | 11.91068 | 114° | 80km/h | 11225m | 3.2m/s | -47.7°C | 31.7% | 0hPa | 2.8V | 08:30:00 | 01:01:30 | 00:00:00 | |
| IW2NTF | 2026-08-30 23:35:05 | 44.63646 | 11.90807 | 116° | 82km/h | 11183m | 4m/s | -47.4°C | 31.3% | 0hPa | 2.8V | 08:30:00 | 01:01:20 | 00:00:00 | |
| IW2NTF | 2026-08-30 23:34:55 | 44.63727 | 11.90547 | 112° | 78km/h | 11140m | 4m/s | -47°C | 31.9% | 0hPa | 2.9V | 08:30:00 | 01:01:10 | 00:00:00 | |
| IW2NTF | 2026-08-30 23:34:45 | 44.63810 | 11.90283 | 113° | 84km/h | 11098m | 5.1m/s | -46.6°C | 31.5% | 0hPa | 2.7V | 08:30:00 | 01:01:00 | 00:00:00 | |
| IW2NTF | 2026-08-30 23:34:37 | 44.63893 | 11.90024 | 113° | 80km/h | 11056m | 4.8m/s | -46.3°C | 29.9% | 0hPa | 2.7V | 08:30:00 | 01:00:50 | 00:00:00 | |
| IW2NTF | 2026-08-30 23:34:10 | 44.64108 | 11.89326 | 115° | 75km/h | 10939m | 5.9m/s | -45.3°C | 23.5% | 0hPa | 2.9V | 08:30:00 | 01:00:23 | 00:00:00 | |
| IW2NTF | 2026-08-30 23:33:50 | 44.64232 | 11.88924 | 110° | 77km/h | 10869m | 6m/s | -44.7°C | 21.6% | 0hPa | 2.9V | 08:30:00 | 01:00:07 | 00:00:00 | |
| IW2NTF | 2026-08-30 23:33:16 | 44.64492 | 11.87998 | 112° | 71km/h | 10694m | 5.6m/s | -43.4°C | 23.3% | 0hPa | 2.9V | 08:30:00 | 00:59:29 | 00:00:00 | |
| IW2NTF | 2026-08-30 23:32:58 | 44.64588 | 11.87649 | 111° | 71km/h | 10628m | 6m/s | -42.9°C | 22.4% | 0hPa | 2.8V | 08:30:00 | 00:59:15 | 00:00:00 | |
| IW2NTF | 2026-08-30 23:32:46 | 44.64691 | 11.87265 | 116° | 71km/h | 10554m | 5.1m/s | -42.3°C | 20.7% | 0hPa | 2.9V | 08:30:00 | 00:58:59 | 00:00:00 | |
| IW2NTF | 2026-08-30 23:32:30 | 44.64767 | 11.86964 | 107° | 75km/h | 10490m | 3.7m/s | -41.9°C | 22.9% | 0hPa | 2.9V | 08:30:00 | 00:58:47 | 00:00:00 | |
| IW2NTF | 2026-08-30 23:32:20 | 44.64831 | 11.86716 | 111° | 73km/h | 10437m | 4m/s | -41.7°C | 24.9% | 0hPa | 2.9V | 08:30:00 | 00:58:37 | 00:00:00 | |
| IW2NTF | 2026-08-30 23:32:10 | 44.64898 | 11.86402 | 106° | 71km/h | 10371m | 4.2m/s | -41.2°C | 25.2% | 0hPa | 2.9V | 08:30:00 | 00:58:24 | 00:00:00 | |
| IW2NTF | 2026-08-30 23:32:00 | 44.64947 | 11.86175 | 102° | 64km/h | 10321m | 6.9m/s | -40.7°C | 25.5% | 0hPa | 2.9V | 08:30:00 | 00:58:14 | 00:00:00 | |
| IW2NTF | 2026-08-30 23:31:50 | 44.64984 | 11.85954 | 105° | 62km/h | 10268m | 3.9m/s | -40.4°C | 30.9% | 0hPa | 2.9V | 08:30:00 | 00:58:04 | 00:00:00 | |
| IW2NTF | 2026-08-30 23:31:40 | 44.65030 | 11.85728 | 105° | 69km/h | 10216m | 5.7m/s | -40°C | 32.1% | 0hPa | 2.9V | 08:30:00 | 00:57:54 | 00:00:00 | |
| IW2NTF | 2026-08-30 23:31:30 | 44.65073 | 11.85499 | 106° | 73km/h | 10161m | 5.8m/s | -39.5°C | 30.4% | 0hPa | 2.9V | 08:30:00 | 00:57:44 | 00:00:00 | |
| IW2NTF | 2026-08-30 23:31:20 | 44.65114 | 11.85253 | 100° | 71km/h | 10110m | 6.3m/s | -39°C | 29.1% | 0hPa | 2.9V | 08:30:00 | 00:57:34 | 00:00:00 | |
| IW2NTF | 2026-08-30 23:31:08 | 44.65150 | 11.85015 | 100° | 68km/h | 10053m | 4.1m/s | -38.5°C | 26.7% | 0hPa | 2.9V | 08:30:00 | 00:57:24 | 00:00:00 | |
| IW2NTF | 2026-08-30 23:30:58 | 44.65187 | 11.84786 | 101° | 66km/h | 9998m | 5.8m/s | -38.1°C | 27.3% | 0hPa | 2.9V | 08:30:00 | 00:57:14 | 00:00:00 | |
| IW2NTF | 2026-08-30 23:30:48 | 44.65228 | 11.84554 | 100° | 66km/h | 9944m | 5.9m/s | -37.6°C | 25.9% | 0hPa | 2.8V | 08:30:00 | 00:57:04 | 00:00:00 | |
| IW2NTF | 2026-08-30 23:30:38 | 44.65262 | 11.84321 | 102° | 66km/h | 9896m | 2.7m/s | -37.1°C | 25.6% | 0hPa | 2.9V | 08:30:00 | 00:56:54 | 00:00:00 | |
| IW2NTF | 2026-08-30 23:30:28 | 44.65297 | 11.84091 | 103° | 71km/h | 9851m | 3m/s | -36.7°C | 25.1% | 0hPa | 2.8V | 08:30:00 | 00:56:44 | 00:00:00 | |
| IW2NTF | 2026-08-30 23:30:20 | 44.65340 | 11.83850 | 105° | 68km/h | 9800m | 6m/s | -36.2°C | 24.4% | 0hPa | 2.9V | 08:30:00 | 00:56:34 | 00:00:00 | |
| IW2NTF | 2026-08-30 23:30:09 | 44.65361 | 11.83619 | 105° | 68km/h | 9746m | 3m/s | -35.7°C | 24.1% | 0hPa | 2.9V | 08:30:00 | 00:56:24 | 00:00:00 | |
| IW2NTF | 2026-08-30 23:29:59 | 44.65395 | 11.83391 | 95° | 66km/h | 9693m | 6.4m/s | -35.3°C | 24.4% | 0hPa | 2.8V | 08:30:00 | 00:56:14 | 00:00:00 | |
| IW2NTF | 2026-08-30 23:29:48 | 44.65419 | 11.83150 | 101° | 64km/h | 9635m | 7.6m/s | -34.8°C | 21.6% | 0hPa | 2.9V | 08:30:00 | 00:56:04 | 00:00:00 | |
| IW2NTF | 2026-08-30 23:29:39 | 44.65451 | 11.82902 | 102° | 68km/h | 9581m | 3.9m/s | -34.3°C | 20.1% | 0hPa | 2.9V | 08:30:00 | 00:55:54 | 00:00:00 | |
| IW2NTF | 2026-08-30 23:29:28 | 44.65494 | 11.82657 | 96° | 73km/h | 9525m | 2.9m/s | -33.8°C | 19.1% | 0hPa | 2.8V | 08:30:00 | 00:55:44 | 00:00:00 | |
| IW2NTF | 2026-08-30 23:29:19 | 44.65533 | 11.82391 | 105° | 78km/h | 9470m | 5.3m/s | -33.5°C | 19.3% | 0hPa | 2.9V | 08:30:00 | 00:55:34 | 00:00:00 | |
| IW2NTF | 2026-08-30 23:29:08 | 44.65559 | 11.82131 | 101° | 77km/h | 9421m | 3.3m/s | -33.1°C | 19.3% | 0hPa | 2.9V | 08:30:00 | 00:55:24 | 00:00:00 | |
| IW2NTF | 2026-08-30 23:28:58 | 44.65591 | 11.81874 | 97° | 78km/h | 9371m | 8.9m/s | -32.7°C | 20.4% | 0hPa | 2.8V | 08:30:00 | 00:55:14 | 00:00:00 | |
| IW2NTF | 2026-08-30 23:28:48 | 44.65618 | 11.81621 | 101° | 75km/h | 9311m | 2.8m/s | -32.2°C | 20.2% | 0hPa | 2.9V | 08:30:00 | 00:55:04 | 00:00:00 | |
| IW2NTF | 2026-08-30 23:28:39 | 44.65658 | 11.81365 | 103° | 73km/h | 9261m | 7.8m/s | -31.7°C | 19.5% | 0hPa | 2.9V | 08:30:00 | 00:54:54 | 00:00:00 | |
| IW2NTF | 2026-08-30 23:28:29 | 44.65694 | 11.81114 | 105° | 77km/h | 9209m | 5.5m/s | -31.2°C | 19% | 0hPa | 2.9V | 08:30:00 | 00:54:44 | 00:00:00 | |
| IW2NTF | 2026-08-30 23:28:18 | 44.65741 | 11.80838 | 104° | 75km/h | 9155m | 2.4m/s | -30.8°C | 17.7% | 0hPa | 2.8V | 08:30:00 | 00:54:34 | 00:00:00 | |
| IW2NTF | 2026-08-30 23:28:09 | 44.65786 | 11.80579 | 104° | 80km/h | 9092m | 5.5m/s | -30.5°C | 24.3% | 0hPa | 2.9V | 08:30:00 | 00:54:24 | 00:00:00 | |
| IW2NTF | 2026-08-30 23:27:59 | 44.65844 | 11.80302 | 101° | 78km/h | 9036m | 7.3m/s | -30°C | 24.8% | 0hPa | 2.9V | 08:30:00 | 00:54:14 | 00:00:00 | |
| IW2NTF | 2026-08-30 23:27:49 | 44.65888 | 11.80043 | 100° | 80km/h | 8986m | 5.6m/s | -29.6°C | 25.1% | 0hPa | 2.9V | 08:30:00 | 00:54:04 | 00:00:00 | |
| IW2NTF | 2026-08-30 23:27:21 | 44.65984 | 11.79371 | 103° | 68km/h | 8858m | 3.8m/s | -28.4°C | 22.2% | 0hPa | 2.8V | 08:30:00 | 00:53:38 | 00:00:00 | |
| IW2NTF | 2026-08-30 23:27:15 | 44.66016 | 11.79139 | 103° | 77km/h | 8811m | 5.2m/s | -27.9°C | 20.1% | 0hPa | 2.8V | 08:30:00 | 00:53:28 | 00:00:00 | |
| IW2NTF | 2026-08-30 23:27:02 | 44.66045 | 11.78905 | 94° | 68km/h | 8759m | 7.2m/s | -27.4°C | 18.7% | 0hPa | 2.9V | 08:30:00 | 00:53:18 | 00:00:00 | |
| IW2NTF | 2026-08-30 23:26:55 | 44.66080 | 11.78665 | 103° | 69km/h | 8704m | 3.7m/s | -26.9°C | 16.2% | 0hPa | 2.9V | 08:30:00 | 00:53:08 | 00:00:00 | |
| IW2NTF | 2026-08-30 23:26:42 | 44.66107 | 11.78446 | 105° | 64km/h | 8651m | 4.7m/s | -26.5°C | 10.6% | 0hPa | 2.9V | 08:30:00 | 00:52:58 | 00:00:00 | |
| IW2NTF | 2026-08-30 23:26:35 | 44.66133 | 11.78215 | 98° | 71km/h | 8599m | 5.2m/s | -26.2°C | 7.1% | 0hPa | 2.9V | 08:30:00 | 00:52:48 | 00:00:00 | |
| IW2NTF | 2026-08-30 23:26:21 | 44.66156 | 11.77964 | 97° | 71km/h | 8547m | 5.9m/s | -26.1°C | 8% | 0hPa | 2.9V | 08:30:00 | 00:52:38 | 00:00:00 | |
| IW2NTF | 2026-08-30 23:26:16 | 44.66183 | 11.77717 | 101° | 62km/h | 8493m | 2.8m/s | -25.7°C | 7.9% | 0hPa | 2.9V | 08:30:00 | 00:52:28 | 00:00:00 | |
| IW2NTF | 2026-08-30 23:26:02 | 44.66217 | 11.77512 | 105° | 69km/h | 8437m | 4.5m/s | -25.2°C | 7.5% | 0hPa | 2.9V | 08:30:00 | 00:52:18 | 00:00:00 | |
| IW2NTF | 2026-08-30 23:25:55 | 44.66240 | 11.77306 | 97° | 57km/h | 8383m | 5m/s | -25°C | 7.7% | 0hPa | 2.9V | 08:30:00 | 00:52:08 | 00:00:00 | |
| IW2NTF | 2026-08-30 23:25:41 | 44.66256 | 11.77112 | 96° | 55km/h | 8341m | 4.2m/s | -24.6°C | 8% | 0hPa | 2.9V | 08:30:00 | 00:51:58 | 00:00:00 | |
| IW2NTF | 2026-08-30 23:25:36 | 44.66267 | 11.76919 | 91° | 55km/h | 8297m | 5.7m/s | -24.2°C | 8.5% | 0hPa | 2.9V | 08:30:00 | 00:51:48 | 00:00:00 | |
| IW2NTF | 2026-08-30 23:25:22 | 44.66273 | 11.76720 | 91° | 51km/h | 8254m | 3.8m/s | -24°C | 9.2% | 0hPa | 2.9V | 08:30:00 | 00:51:38 | 00:00:00 | |
| IW2NTF | 2026-08-30 23:25:16 | 44.66279 | 11.76523 | 93° | 51km/h | 8212m | 4.8m/s | -23.7°C | 9.8% | 0hPa | 2.9V | 08:30:00 | 00:51:28 | 00:00:00 | |
| IW2NTF | 2026-08-30 23:25:02 | 44.66282 | 11.76333 | 93° | 57km/h | 8169m | 5m/s | -23.4°C | 10.5% | 0hPa | 2.9V | 08:30:00 | 00:51:18 | 00:00:00 | |
| IW2NTF | 2026-08-30 23:24:55 | 44.66301 | 11.76138 | 100° | 57km/h | 8124m | 5m/s | -23°C | 12% | 0hPa | 2.9V | 08:30:00 | 00:51:08 | 00:00:00 | |
| IW2NTF | 2026-08-30 23:24:42 | 44.66302 | 11.75941 | 90° | 58km/h | 8067m | 3.8m/s | -22.6°C | 11.5% | 0hPa | 2.9V | 08:30:00 | 00:50:58 | 00:00:00 | |
| IW2NTF | 2026-08-30 23:24:35 | 44.66305 | 11.75736 | 84° | 57km/h | 8023m | 3.7m/s | -22.3°C | 12.5% | 0hPa | 2.8V | 08:30:00 | 00:50:48 | 00:00:00 | |
| IW2NTF | 2026-08-30 23:24:21 | 44.66293 | 11.75548 | 78° | 55km/h | 7963m | 6.8m/s | -22.1°C | 16.6% | 0hPa | 2.8V | 08:30:00 | 00:50:38 | 00:00:00 | |
| IW2NTF | 2026-08-30 23:24:11 | 44.66274 | 11.75347 | 84° | 62km/h | 7918m | 6.7m/s | -21.8°C | 16.6% | 0hPa | 2.9V | 08:30:00 | 00:50:28 | 00:00:00 | |
| IW2NTF | 2026-08-30 23:24:01 | 44.66278 | 11.75142 | 89° | 57km/h | 7869m | 4.6m/s | -21.6°C | 18.3% | 0hPa | 2.9V | 08:30:00 | 00:50:18 | 00:00:00 | |
| IW2NTF | 2026-08-30 23:23:51 | 44.66267 | 11.74938 | 83° | 55km/h | 7824m | 3.4m/s | -21.2°C | 18.4% | 0hPa | 2.9V | 08:30:00 | 00:50:08 | 00:00:00 | |
| IW2NTF | 2026-08-30 23:23:41 | 44.66256 | 11.74740 | 87° | 55km/h | 7779m | 3.8m/s | -20.8°C | 18.3% | 0hPa | 2.9V | 08:30:00 | 00:49:58 | 00:00:00 | |
| IW2NTF | 2026-08-30 23:23:32 | 44.66245 | 11.74545 | 89° | 49km/h | 7728m | 5.4m/s | -20.4°C | 18.1% | 0hPa | 2.8V | 08:30:00 | 00:49:48 | 00:00:00 | |
| IW2NTF | 2026-08-30 23:23:21 | 44.66244 | 11.74348 | 85° | 57km/h | 7679m | 5.8m/s | -20°C | 18% | 0hPa | 2.9V | 08:30:00 | 00:49:38 | 00:00:00 | |
| IW2NTF | 2026-08-30 23:23:15 | 44.66237 | 11.74150 | 87° | 60km/h | 7619m | 3.4m/s | -19.5°C | 17.3% | 0hPa | 2.9V | 08:30:00 | 00:49:28 | 00:00:00 | |
| IW2NTF | 2026-08-30 23:23:04 | 44.66225 | 11.73966 | 81° | 51km/h | 7574m | 7.3m/s | -19.2°C | 21.1% | 0hPa | 2.9V | 08:30:00 | 00:49:18 | 00:00:00 | |
| IW2NTF | 2026-08-30 23:22:55 | 44.66219 | 11.73771 | 86° | 55km/h | 7519m | 4.2m/s | -18.9°C | 21.7% | 0hPa | 2.9V | 08:30:00 | 00:49:08 | 00:00:00 | |
| IW2NTF | 2026-08-30 23:22:44 | 44.66206 | 11.73593 | 86° | 51km/h | 7465m | 5.5m/s | -18.6°C | 19.5% | 0hPa | 2.9V | 08:30:00 | 00:48:58 | 00:00:00 | |
| IW2NTF | 2026-08-30 23:22:34 | 44.66195 | 11.73418 | 88° | 46km/h | 7415m | 7.2m/s | -18.4°C | 18% | 0hPa | 2.9V | 08:30:00 | 00:48:48 | 00:00:00 | |
| IW2NTF | 2026-08-30 23:22:24 | 44.66180 | 11.73246 | 89° | 55km/h | 7358m | 3.6m/s | -18.1°C | 21.2% | 0hPa | 2.9V | 08:30:00 | 00:48:38 | 00:00:00 | |
| IW2NTF | 2026-08-30 23:22:14 | 44.66158 | 11.73052 | 78° | 55km/h | 7303m | 9.4m/s | -17.7°C | 22.1% | 0hPa | 2.8V | 08:30:00 | 00:48:28 | 00:00:00 | |
| IW2NTF | 2026-08-30 23:22:04 | 44.66148 | 11.72872 | 80° | 55km/h | 7248m | 3.5m/s | -17.5°C | 31.1% | 0hPa | 2.9V | 08:30:00 | 00:48:18 | 00:00:00 | |
| IW2NTF | 2026-08-30 23:21:54 | 44.66118 | 11.72706 | 77° | 53km/h | 7190m | 3.8m/s | -17°C | 30.2% | 0hPa | 2.9V | 08:30:00 | 00:48:08 | 00:00:00 | |
| IW2NTF | 2026-08-30 23:21:44 | 44.66099 | 11.72552 | 83° | 44km/h | 7141m | 6.2m/s | -16.6°C | 29.2% | 0hPa | 2.9V | 08:30:00 | 00:47:58 | 00:00:00 | |
| IW2NTF | 2026-08-30 23:21:35 | 44.66074 | 11.72390 | 77° | 46km/h | 7088m | 6.9m/s | -16.3°C | 29.1% | 0hPa | 2.9V | 08:30:00 | 00:47:48 | 00:00:00 | |
| IW2NTF | 2026-08-30 23:21:23 | 44.66053 | 11.72186 | 76° | 47km/h | 7019m | 4.8m/s | -15.9°C | 34.4% | 0hPa | 2.9V | 08:30:00 | 00:47:36 | 00:00:00 | |
| IW2NTF | 2026-08-30 23:21:13 | 44.66021 | 11.72027 | 83° | 38km/h | 6959m | 7.2m/s | -15.4°C | 37.5% | 0hPa | 2.9V | 08:30:00 | 00:47:26 | 00:00:00 | |
| IW2NTF | 2026-08-30 23:21:01 | 44.65991 | 11.71846 | 71° | 46km/h | 6888m | 5.6m/s | -14.8°C | 40.9% | 0hPa | 2.9V | 08:30:00 | 00:47:14 | 00:00:00 | |
| IW2NTF | 2026-08-30 23:20:41 | 44.65944 | 11.71584 | 80° | 35km/h | 6775m | 7.5m/s | -14°C | 0% | 0hPa | 2.9V | 08:30:00 | 00:46:54 | 00:00:00 | |
| IW2NTF | 2026-08-30 23:20:31 | 44.65939 | 11.71445 | 87° | 44km/h | 6716m | 7.3m/s | -13.5°C | 0% | 0hPa | 2.9V | 08:30:00 | 00:46:44 | 00:00:00 | |
| IW2NTF | 2026-08-30 23:20:21 | 44.65920 | 11.71307 | 89° | 46km/h | 6651m | 5.4m/s | -12.9°C | 0% | 0hPa | 2.9V | 08:30:00 | 00:46:34 | 00:00:00 | |
| IW2NTF | 2026-08-30 23:20:11 | 44.65917 | 11.71169 | 91° | 33km/h | 6598m | 7.3m/s | -12.4°C | 0% | 0hPa | 2.9V | 08:30:00 | 00:46:24 | 00:00:00 | |
| IW2NTF | 2026-08-30 23:20:01 | 44.65919 | 11.71010 | 89° | 51km/h | 6540m | 7.1m/s | -12°C | 0% | 0hPa | 2.9V | 08:30:00 | 00:46:14 | 00:00:00 | |
| IW2NTF | 2026-08-30 23:19:51 | 44.65922 | 11.70855 | 92° | 46km/h | 6487m | 5.2m/s | -11.5°C | 0% | 0hPa | 2.9V | 08:30:00 | 00:46:04 | 00:00:00 | |
| IW2NTF | 2026-08-30 23:19:41 | 44.65922 | 11.70708 | 81° | 40km/h | 6438m | 3.4m/s | 0°C | 0% | 0hPa | 2.8V | 08:30:00 | 00:45:54 | 00:00:00 | |
| IW2NTF | 2026-08-30 23:19:22 | 44.65907 | 11.70510 | 84° | 38km/h | 6351m | 4.8m/s | 0°C | 0% | 0hPa | 2.9V | 00:00:00 | 00:45:39 | 00:00:00 | |
| IW2NTF | 2026-08-30 23:19:12 | 44.65900 | 11.70386 | 81° | 38km/h | 6302m | 2.9m/s | 0°C | 0% | 0hPa | 3V | 00:00:00 | 00:45:29 | 00:00:00 | |
| IW2NTF | 2026-08-30 23:19:02 | 44.65900 | 11.70224 | 93° | 37km/h | 6249m | 3.6m/s | 0°C | 0% | 0hPa | 2.8V | 00:00:00 | 00:45:17 | 00:00:00 | |
| IW2NTF | 2026-08-30 23:18:12 | 44.65923 | 11.69510 | 90° | 35km/h | 5984m | 4.5m/s | 0°C | 0% | 0hPa | 3V | 00:00:00 | 00:44:26 | 00:00:00 | |
| IW2NTF | 2026-08-30 23:17:49 | 44.65959 | 11.69190 | 106° | 40km/h | 5854m | 3.7m/s | 0°C | 0% | 0hPa | 2.9V | 00:00:00 | 00:44:02 | 00:00:00 | |
| IW2NTF | 2026-08-30 23:17:39 | 44.65993 | 11.69034 | 108° | 47km/h | 5795m | 5.2m/s | 0°C | 0% | 0hPa | 2.9V | 00:00:00 | 00:43:52 | 00:00:00 | |
| IW2NTF | 2026-08-30 23:17:12 | 44.66047 | 11.68666 | 92° | 38km/h | 5652m | 7.6m/s | 0°C | 0% | 0hPa | 3V | 00:00:00 | 00:43:27 | 00:00:00 | |
| IW2NTF | 2026-08-30 23:15:06 | 44.66252 | 11.66702 | 94° | 38km/h | 4964m | 4.3m/s | 0°C | 0% | 0hPa | 3V | 00:00:00 | 00:41:19 | 00:00:00 | |
| IW2NTF | 2026-08-30 23:15:00 | 44.66246 | 11.66609 | 84° | 42km/h | 4937m | 5m/s | 0°C | 0% | 0hPa | 3V | 00:00:00 | 00:41:13 | 00:00:00 | |
| IW2NTF | 2026-08-30 23:14:52 | 44.66253 | 11.66521 | 97° | 38km/h | 4910m | 4m/s | 0°C | 0% | 0hPa | 3V | 00:00:00 | 00:41:07 | 00:00:00 | |
| IW2NTF | 2026-08-30 23:14:08 | 44.66229 | 11.65955 | 92° | 38km/h | 4678m | 5.4m/s | 0°C | 0% | 0hPa | 3V | 00:00:00 | 00:40:24 | 00:00:00 | |
| IW2NTF | 2026-08-30 23:14:02 | 44.66228 | 11.65863 | 88° | 38km/h | 4643m | 5.1m/s | 0°C | 0% | 0hPa | 3V | 00:00:00 | 00:40:18 | 00:00:00 | |
| IW2NTF | 2026-08-30 23:13:56 | 44.66227 | 11.65782 | 95° | 40km/h | 4608m | 8m/s | 0°C | 0% | 0hPa | 3V | 00:00:00 | 00:40:12 | 00:00:00 | |
| IW2NTF | 2026-08-30 23:13:50 | 44.66226 | 11.65693 | 83° | 38km/h | 4574m | 5.8m/s | 0°C | 0% | 0hPa | 3V | 00:00:00 | 00:40:06 | 00:00:00 | |
| IW2NTF | 2026-08-30 23:13:45 | 44.66224 | 11.65610 | 91° | 37km/h | 4536m | 6.7m/s | 0°C | 0% | 0hPa | 3V | 00:00:00 | 00:40:00 | 00:00:00 | |
| IW2NTF | 2026-08-30 23:13:38 | 44.66217 | 11.65533 | 83° | 35km/h | 4503m | 7.5m/s | 0°C | 0% | 0hPa | 3V | 00:00:00 | 00:39:54 | 00:00:00 |